Observation data for Stinnett on 09/12/2017      Previous  Date  Next       Current Mesonet Observations  Soil Data  Daily Summary Page  Observations in Plain Language
KST3 120500Z 14004KT 20/12 A3015 RMK A01 T02030116  RH  057%=      5-min Rain = 0
KST3 120501Z 14004KT 20/12 A3015 RMK A01 T02020116  RH  057%=      5-min Rain = 0
KST3 120502Z 14005KT 20/12 A3015 RMK A01 T02020116  RH  058%=      5-min Rain = 0
KST3 120503Z 14005KT 20/12 A3015 RMK A01 T02020116  RH  058%=      5-min Rain = 0
KST3 120504Z 15005KT 20/12 A3015 RMK A01 T02010116  RH  058%=      5-min Rain = 0
KST3 120505Z 15005KT 20/12 A3015 RMK A01 T02010115  RH  058%=      5-min Rain = 0
KST3 120506Z 15005KT 20/12 A3015 RMK A01 T02000116  RH  058%=      5-min Rain = 0
KST3 120507Z 15005KT 20/12 A3015 RMK A01 T02000116  RH  058%=      5-min Rain = 0
KST3 120508Z 15005KT 20/12 A3015 RMK A01 T01990116  RH  058%=      5-min Rain = 0
KST3 120509Z 15006KT 20/12 A3015 RMK A01 T01990116  RH  059%=      5-min Rain = 0
KST3 120510Z 15006KT 20/12 A3014 RMK A01 T01990116  RH  059%=      5-min Rain = 0
KST3 120511Z 16006KT 20/12 A3014 RMK A01 T01990115  RH  059%=      5-min Rain = 0
KST3 120512Z 15005KT 20/12 A3014 RMK A01 T01980115  RH  059%=      5-min Rain = 0
KST3 120513Z 16005KT 20/12 A3014 RMK A01 T01980115  RH  059%=      5-min Rain = 0
KST3 120514Z 16005KT 20/12 A3014 RMK A01 T01980115  RH  059%=      5-min Rain = 0
KST3 120515Z 16005KT 20/12 A3014 RMK A01 T01980116  RH  059%=      5-min Rain = 0
KST3 120516Z 16005KT 20/12 A3014 RMK A01 T01980116  RH  059%=      5-min Rain = 0
KST3 120517Z 16005KT 20/12 A3014 RMK A01 T01980116  RH  059%=      5-min Rain = 0
KST3 120518Z 16005KT 20/12 A3014 RMK A01 T01970116  RH  059%=      5-min Rain = 0
KST3 120519Z 16005KT 20/12 A3014 RMK A01 T01970116  RH  059%=      5-min Rain = 0
KST3 120520Z 16005KT 20/12 A3014 RMK A01 T01970116  RH  059%=      5-min Rain = 0
KST3 120521Z 16005KT 20/12 A3014 RMK A01 T01980116  RH  059%=      5-min Rain = 0
KST3 120522Z 16005KT 20/12 A3014 RMK A01 T01970116  RH  059%=      5-min Rain = 0
KST3 120523Z 17005KT 20/12 A3014 RMK A01 T01970116  RH  059%=      5-min Rain = 0
KST3 120524Z 17005KT 20/12 A3014 RMK A01 T01980117  RH  059%=      5-min Rain = 0
KST3 120525Z 17005KT 20/12 A3014 RMK A01 T01990117  RH  059%=      5-min Rain = 0
KST3 120526Z 17005KT 20/12 A3014 RMK A01 T02000117  RH  059%=      5-min Rain = 0
KST3 120527Z 17005KT 20/12 A3014 RMK A01 T02000117  RH  059%=      5-min Rain = 0
KST3 120528Z 17005KT 20/12 A3014 RMK A01 T02000117  RH  059%=      5-min Rain = 0
KST3 120529Z 17006KT 20/12 A3014 RMK A01 T02000118  RH  059%=      5-min Rain = 0
KST3 120530Z 17006KT 20/12 A3014 RMK A01 T02000117  RH  059%=      5-min Rain = 0
KST3 120531Z 17006KT 20/12 A3014 RMK A01 T01990118  RH  059%=      5-min Rain = 0
KST3 120532Z 17006KT 20/12 A3014 RMK A01 T01990118  RH  059%=      5-min Rain = 0
KST3 120533Z 17006KT 20/12 A3014 RMK A01 T01990118  RH  059%=      5-min Rain = 0
KST3 120534Z 18006KT 20/12 A3014 RMK A01 T02000118  RH  059%=      5-min Rain = 0
KST3 120535Z 18006KT 20/12 A3014 RMK A01 T02010118  RH  059%=      5-min Rain = 0
KST3 120536Z 17005KT 20/12 A3014 RMK A01 T02010118  RH  059%=      5-min Rain = 0
KST3 120537Z 17005KT 20/12 A3014 RMK A01 T02020118  RH  059%=      5-min Rain = 0
KST3 120538Z 18005KT 20/12 A3014 RMK A01 T02010118  RH  059%=      5-min Rain = 0
KST3 120539Z 18005KT 20/12 A3014 RMK A01 T02010118  RH  059%=      5-min Rain = 0
KST3 120540Z 18005KT 20/12 A3014 RMK A01 T02000117  RH  059%=      5-min Rain = 0
KST3 120541Z 18005KT 20/12 A3014 RMK A01 T01980117  RH  059%=      5-min Rain = 0
KST3 120542Z 18005KT 20/12 A3014 RMK A01 T01970116  RH  059%=      5-min Rain = 0
KST3 120543Z 18005KT 20/12 A3014 RMK A01 T01960116  RH  060%=      5-min Rain = 0
KST3 120544Z 18005KT 20/12 A3014 RMK A01 T01950116  RH  060%=      5-min Rain = 0
KST3 120545Z 18005KT 19/12 A3014 RMK A01 T01940116  RH  060%=      5-min Rain = 0
KST3 120546Z 18005KT 19/12 A3014 RMK A01 T01940116  RH  061%=      5-min Rain = 0
KST3 120547Z 18005KT 19/12 A3014 RMK A01 T01930116  RH  061%=      5-min Rain = 0
KST3 120548Z 18006KT 19/12 A3014 RMK A01 T01940117  RH  061%=      5-min Rain = 0
KST3 120549Z 18006KT 19/12 A3014 RMK A01 T01940117  RH  061%=      5-min Rain = 0
KST3 120550Z 18006KT 20/12 A3014 RMK A01 T01950117  RH  061%=      5-min Rain = 0
KST3 120551Z 18005KT 20/12 A3014 RMK A01 T01960118  RH  061%=      5-min Rain = 0
KST3 120552Z 18005KT 20/12 A3014 RMK A01 T01970118  RH  060%=      5-min Rain = 0
KST3 120553Z 19005KT 20/12 A3014 RMK A01 T01970118  RH  060%=      5-min Rain = 0
KST3 120554Z 19005KT 20/12 A3014 RMK A01 T01960117  RH  060%=      5-min Rain = 0
KST3 120555Z 19005KT 20/12 A3014 RMK A01 T01960117  RH  060%=      5-min Rain = 0
KST3 120556Z 19005KT 19/12 A3014 RMK A01 T01940117  RH  061%=      5-min Rain = 0
KST3 120557Z 19005KT 19/12 A3014 RMK A01 T01940117  RH  061%=      5-min Rain = 0
KST3 120558Z 19005KT 19/12 A3014 RMK A01 T01930117  RH  061%=      5-min Rain = 0
KST3 120559Z 19006KT 19/12 A3014 RMK A01 T01930117  RH  061%=      5-min Rain = 0
KST3 120600Z 19006KT 19/12 A3014 RMK A01 T01940117  RH  061%=      5-min Rain = 0
KST3 120601Z 18007KT 20/12 A3014 RMK A01 T01960118  RH  061%=      5-min Rain = 0
KST3 120602Z 18007KT 20/12 A3014 RMK A01 T01960117  RH  060%=      5-min Rain = 0
KST3 120603Z 18007KT 20/12 A3014 RMK A01 T01970117  RH  060%=      5-min Rain = 0
KST3 120604Z 18007KT 20/12 A3014 RMK A01 T01970117  RH  060%=      5-min Rain = 0
KST3 120605Z 19006KT 20/12 A3014 RMK A01 T01970117  RH  060%=      5-min Rain = 0
KST3 120606Z 19007KT 20/12 A3014 RMK A01 T01970117  RH  060%=      5-min Rain = 0
KST3 120607Z 19006KT 20/12 A3014 RMK A01 T01980117  RH  060%=      5-min Rain = 0
KST3 120608Z 19006KT 20/12 A3014 RMK A01 T01980117  RH  059%=      5-min Rain = 0
KST3 120609Z 19006KT 20/12 A3014 RMK A01 T01970116  RH  060%=      5-min Rain = 0
KST3 120610Z 19006KT 20/12 A3014 RMK A01 T01960116  RH  060%=      5-min Rain = 0
KST3 120611Z 19006KT 19/12 A3014 RMK A01 T01940116  RH  060%=      5-min Rain = 0
KST3 120612Z 19006KT 19/12 A3014 RMK A01 T01930116  RH  061%=      5-min Rain = 0
KST3 120613Z 19006KT 19/12 A3014 RMK A01 T01930116  RH  061%=      5-min Rain = 0
KST3 120614Z 19006KT 19/12 A3014 RMK A01 T01920116  RH  061%=      5-min Rain = 0
KST3 120615Z 19006KT 19/12 A3014 RMK A01 T01920116  RH  061%=      5-min Rain = 0
KST3 120616Z 19006KT 19/12 A3014 RMK A01 T01920116  RH  061%=      5-min Rain = 0
KST3 120617Z 20006KT 19/12 A3013 RMK A01 T01920116  RH  061%=      5-min Rain = 0
KST3 120618Z 20006KT 19/12 A3013 RMK A01 T01910116  RH  062%=      5-min Rain = 0
KST3 120619Z 19006KT 19/12 A3013 RMK A01 T01900115  RH  062%=      5-min Rain = 0
KST3 120620Z 19006KT 19/12 A3013 RMK A01 T01890115  RH  062%=      5-min Rain = 0
KST3 120621Z 19007KT 19/12 A3013 RMK A01 T01890115  RH  062%=      5-min Rain = 0
KST3 120622Z 19006KT 19/12 A3013 RMK A01 T01880115  RH  063%=      5-min Rain = 0
KST3 120623Z 20006KT 19/12 A3013 RMK A01 T01870115  RH  063%=      5-min Rain = 0
KST3 120624Z 20006KT 19/12 A3013 RMK A01 T01870115  RH  063%=      5-min Rain = 0
KST3 120625Z 20006KT 19/11 A3013 RMK A01 T01850114  RH  063%=      5-min Rain = 0
KST3 120626Z 20006KT 18/11 A3013 RMK A01 T01840114  RH  064%=      5-min Rain = 0
KST3 120627Z 20006KT 18/11 A3013 RMK A01 T01830114  RH  064%=      5-min Rain = 0
KST3 120628Z 20006KT 18/11 A3013 RMK A01 T01830114  RH  064%=      5-min Rain = 0
KST3 120629Z 21006KT 18/11 A3013 RMK A01 T01820114  RH  064%=      5-min Rain = 0
KST3 120630Z 21006KT 18/11 A3013 RMK A01 T01810114  RH  065%=      5-min Rain = 0
KST3 120631Z 21006KT 18/11 A3013 RMK A01 T01810114  RH  065%=      5-min Rain = 0
KST3 120632Z 21006KT 18/11 A3013 RMK A01 T01800114  RH  065%=      5-min Rain = 0
KST3 120633Z 21006KT 18/12 A3013 RMK A01 T01800115  RH  066%=      5-min Rain = 0
KST3 120634Z 21006KT 18/12 A3013 RMK A01 T01800115  RH  066%=      5-min Rain = 0
KST3 120635Z 20006KT 18/12 A3013 RMK A01 T01810115  RH  065%=      5-min Rain = 0
KST3 120636Z 20006KT 18/12 A3013 RMK A01 T01820115  RH  065%=      5-min Rain = 0
KST3 120637Z 20007KT 18/12 A3013 RMK A01 T01820115  RH  065%=      5-min Rain = 0
KST3 120638Z 20007KT 18/12 A3013 RMK A01 T01830115  RH  065%=      5-min Rain = 0
KST3 120639Z 20007KT 18/12 A3013 RMK A01 T01840115  RH  064%=      5-min Rain = 0
KST3 120640Z 20007KT 19/12 A3013 RMK A01 T01850116  RH  064%=      5-min Rain = 0
KST3 120641Z 20007KT 19/12 A3013 RMK A01 T01860116  RH  063%=      5-min Rain = 0
KST3 120642Z 20006KT 19/12 A3013 RMK A01 T01870116  RH  063%=      5-min Rain = 0
KST3 120643Z 20007KT 19/12 A3013 RMK A01 T01890116  RH  063%=      5-min Rain = 0
KST3 120644Z 19006KT 19/12 A3013 RMK A01 T01890116  RH  062%=      5-min Rain = 0
KST3 120645Z 19007KT 19/12 A3013 RMK A01 T01900116  RH  062%=      5-min Rain = 0
KST3 120646Z 19006KT 19/12 A3013 RMK A01 T01910116  RH  062%=      5-min Rain = 0
KST3 120647Z 19006KT 19/12 A3013 RMK A01 T01910116  RH  061%=      5-min Rain = 0
KST3 120648Z 19006KT 19/12 A3013 RMK A01 T01920116  RH  061%=      5-min Rain = 0
KST3 120649Z 19006KT 19/12 A3013 RMK A01 T01920115  RH  061%=      5-min Rain = 0
KST3 120650Z 19006KT 19/12 A3013 RMK A01 T01920115  RH  061%=      5-min Rain = 0
KST3 120651Z 19006KT 19/12 A3013 RMK A01 T01920116  RH  061%=      5-min Rain = 0
KST3 120652Z 19006KT 19/12 A3013 RMK A01 T01920115  RH  061%=      5-min Rain = 0
KST3 120653Z 19006KT 19/12 A3013 RMK A01 T01910116  RH  061%=      5-min Rain = 0
KST3 120654Z 19006KT 19/12 A3013 RMK A01 T01910116  RH  062%=      5-min Rain = 0
KST3 120655Z 19006KT 19/12 A3013 RMK A01 T01910116  RH  062%=      5-min Rain = 0
KST3 120656Z 19006KT 19/12 A3013 RMK A01 T01910116  RH  062%=      5-min Rain = 0
KST3 120657Z 19006KT 19/12 A3013 RMK A01 T01910116  RH  062%=      5-min Rain = 0
KST3 120658Z 19006KT 19/12 A3013 RMK A01 T01910116  RH  062%=      5-min Rain = 0
KST3 120659Z 19006KT 19/12 A3013 RMK A01 T01910116  RH  062%=      5-min Rain = 0
KST3 120700Z 20005KT 19/12 A3013 RMK A01 T01900116  RH  062%=      5-min Rain = 0
KST3 120701Z 20005KT 19/12 A3013 RMK A01 T01900115  RH  062%=      5-min Rain = 0
KST3 120702Z 20005KT 19/12 A3013 RMK A01 T01900116  RH  062%=      5-min Rain = 0
KST3 120703Z 20005KT 19/12 A3013 RMK A01 T01900116  RH  062%=      5-min Rain = 0
KST3 120704Z 21005KT 19/12 A3013 RMK A01 T01890115  RH  062%=      5-min Rain = 0
KST3 120705Z 21005KT 19/12 A3013 RMK A01 T01880115  RH  063%=      5-min Rain = 0
KST3 120706Z 21005KT 19/11 A3013 RMK A01 T01850114  RH  063%=      5-min Rain = 0
KST3 120707Z 21005KT 18/11 A3013 RMK A01 T01840114  RH  064%=      5-min Rain = 0
KST3 120708Z 22004KT 18/11 A3013 RMK A01 T01830114  RH  064%=      5-min Rain = 0
KST3 120709Z 22005KT 18/11 A3013 RMK A01 T01820114  RH  065%=      5-min Rain = 0
KST3 120710Z 22005KT 18/11 A3013 RMK A01 T01810114  RH  065%=      5-min Rain = 0
KST3 120711Z 22005KT 18/11 A3013 RMK A01 T01810114  RH  065%=      5-min Rain = 0
KST3 120712Z 23005KT 18/11 A3013 RMK A01 T01790114  RH  065%=      5-min Rain = 0
KST3 120713Z 22004KT 18/11 A3013 RMK A01 T01790114  RH  066%=      5-min Rain = 0
KST3 120714Z 22004KT 18/11 A3013 RMK A01 T01790114  RH  066%=      5-min Rain = 0
KST3 120715Z 22004KT 18/11 A3013 RMK A01 T01780114  RH  066%=      5-min Rain = 0
KST3 120716Z 22004KT 18/11 A3013 RMK A01 T01790114  RH  066%=      5-min Rain = 0
KST3 120717Z 22004KT 18/12 A3013 RMK A01 T01790115  RH  066%=      5-min Rain = 0
KST3 120718Z 22004KT 18/12 A3013 RMK A01 T01790115  RH  066%=      5-min Rain = 0
KST3 120719Z 21004KT 18/12 A3013 RMK A01 T01800115  RH  066%=      5-min Rain = 0
KST3 120720Z 21004KT 18/12 A3013 RMK A01 T01810115  RH  065%=      5-min Rain = 0
KST3 120721Z 21005KT 18/11 A3013 RMK A01 T01810114  RH  065%=      5-min Rain = 0
KST3 120722Z 21005KT 18/11 A3013 RMK A01 T01810114  RH  065%=      5-min Rain = 0
KST3 120723Z 21005KT 18/11 A3013 RMK A01 T01820114  RH  065%=      5-min Rain = 0
KST3 120724Z 21005KT 18/11 A3013 RMK A01 T01820114  RH  064%=      5-min Rain = 0
KST3 120725Z 21006KT 18/11 A3013 RMK A01 T01820114  RH  064%=      5-min Rain = 0
KST3 120726Z 21006KT 18/11 A3013 RMK A01 T01820114  RH  064%=      5-min Rain = 0
KST3 120727Z 21005KT 18/11 A3012 RMK A01 T01810113  RH  065%=      5-min Rain = 0
KST3 120728Z 21005KT 18/11 A3012 RMK A01 T01800113  RH  065%=      5-min Rain = 0
KST3 120729Z 21006KT 18/11 A3012 RMK A01 T01800113  RH  065%=      5-min Rain = 0
KST3 120730Z 22005KT 18/11 A3012 RMK A01 T01790113  RH  065%=      5-min Rain = 0
KST3 120731Z 22005KT 18/11 A3012 RMK A01 T01800113  RH  065%=      5-min Rain = 0
KST3 120732Z 22006KT 18/11 A3012 RMK A01 T01790113  RH  065%=      5-min Rain = 0
KST3 120733Z 22005KT 18/11 A3012 RMK A01 T01790113  RH  065%=      5-min Rain = 0
KST3 120734Z 22006KT 18/11 A3012 RMK A01 T01790113  RH  065%=      5-min Rain = 0
KST3 120735Z 22006KT 18/11 A3012 RMK A01 T01790112  RH  065%=      5-min Rain = 0
KST3 120736Z 22006KT 18/11 A3013 RMK A01 T01790113  RH  065%=      5-min Rain = 0
KST3 120737Z 22006KT 18/11 A3013 RMK A01 T01790112  RH  065%=      5-min Rain = 0
KST3 120738Z 21006KT 18/11 A3013 RMK A01 T01780112  RH  065%=      5-min Rain = 0
KST3 120739Z 21006KT 18/11 A3013 RMK A01 T01780112  RH  065%=      5-min Rain = 0
KST3 120740Z 21006KT 18/11 A3012 RMK A01 T01780112  RH  065%=      5-min Rain = 0
KST3 120741Z 20006KT 18/11 A3012 RMK A01 T01780112  RH  065%=      5-min Rain = 0
KST3 120742Z 20006KT 18/11 A3012 RMK A01 T01780112  RH  065%=      5-min Rain = 0
KST3 120743Z 20007KT 18/11 A3012 RMK A01 T01780112  RH  065%=      5-min Rain = 0
KST3 120744Z 20007KT 18/11 A3012 RMK A01 T01790112  RH  065%=      5-min Rain = 0
KST3 120745Z 20007KT 18/11 A3012 RMK A01 T01800112  RH  065%=      5-min Rain = 0
KST3 120746Z 19007KT 18/11 A3012 RMK A01 T01810112  RH  064%=      5-min Rain = 0
KST3 120747Z 19008KT 18/11 A3012 RMK A01 T01810112  RH  064%=      5-min Rain = 0
KST3 120748Z 20007KT 18/11 A3012 RMK A01 T01820112  RH  064%=      5-min Rain = 0
KST3 120749Z 20007KT 18/11 A3012 RMK A01 T01830112  RH  064%=      5-min Rain = 0
KST3 120750Z 19007KT 18/11 A3012 RMK A01 T01830112  RH  063%=      5-min Rain = 0
KST3 120751Z 19007KT 18/11 A3012 RMK A01 T01840112  RH  063%=      5-min Rain = 0
KST3 120752Z 19007KT 18/11 A3012 RMK A01 T01840112  RH  063%=      5-min Rain = 0
KST3 120753Z 19007KT 18/11 A3012 RMK A01 T01840112  RH  063%=      5-min Rain = 0
KST3 120754Z 19007KT 18/11 A3012 RMK A01 T01830112  RH  063%=      5-min Rain = 0
KST3 120755Z 19007KT 18/11 A3012 RMK A01 T01830112  RH  063%=      5-min Rain = 0
KST3 120756Z 19006KT 18/11 A3012 RMK A01 T01820112  RH  063%=      5-min Rain = 0
KST3 120757Z 19006KT 18/11 A3012 RMK A01 T01820112  RH  064%=      5-min Rain = 0
KST3 120758Z 20006KT 18/11 A3012 RMK A01 T01820112  RH  064%=      5-min Rain = 0
KST3 120759Z 20006KT 18/11 A3012 RMK A01 T01820112  RH  064%=      5-min Rain = 0
KST3 120800Z 20006KT 18/11 A3012 RMK A01 T01820112  RH  064%=      5-min Rain = 0
KST3 120801Z 20006KT 18/11 A3012 RMK A01 T01820112  RH  064%=      5-min Rain = 0
KST3 120802Z 20005KT 18/11 A3012 RMK A01 T01810112  RH  064%=      5-min Rain = 0
KST3 120803Z 20005KT 18/11 A3012 RMK A01 T01800111  RH  064%=      5-min Rain = 0
KST3 120804Z 19005KT 18/11 A3012 RMK A01 T01790111  RH  064%=      5-min Rain = 0
KST3 120805Z 19006KT 18/11 A3012 RMK A01 T01790111  RH  065%=      5-min Rain = 0
KST3 120806Z 19006KT 18/11 A3012 RMK A01 T01790111  RH  065%=      5-min Rain = 0
KST3 120807Z 19006KT 18/11 A3012 RMK A01 T01790111  RH  065%=      5-min Rain = 0
KST3 120808Z 19007KT 18/11 A3012 RMK A01 T01790112  RH  065%=      5-min Rain = 0
KST3 120809Z 19007KT 18/11 A3012 RMK A01 T01790111  RH  064%=      5-min Rain = 0
KST3 120810Z 19007KT 18/11 A3012 RMK A01 T01800112  RH  064%=      5-min Rain = 0
KST3 120811Z 19006KT 18/11 A3012 RMK A01 T01800111  RH  064%=      5-min Rain = 0
KST3 120812Z 20006KT 18/11 A3012 RMK A01 T01800111  RH  064%=      5-min Rain = 0
KST3 120813Z 20005KT 18/11 A3012 RMK A01 T01800111  RH  064%=      5-min Rain = 0
KST3 120814Z 20005KT 18/11 A3012 RMK A01 T01800111  RH  064%=      5-min Rain = 0
KST3 120815Z 20005KT 18/11 A3012 RMK A01 T01780110  RH  065%=      5-min Rain = 0
KST3 120816Z 20005KT 18/11 A3012 RMK A01 T01760110  RH  065%=      5-min Rain = 0
KST3 120817Z 19006KT 18/11 A3012 RMK A01 T01750110  RH  065%=      5-min Rain = 0
KST3 120818Z 20006KT 18/11 A3012 RMK A01 T01750110  RH  066%=      5-min Rain = 0
KST3 120819Z 20006KT 18/11 A3012 RMK A01 T01750110  RH  066%=      5-min Rain = 0
KST3 120820Z 20006KT 17/11 A3012 RMK A01 T01740110  RH  066%=      5-min Rain = 0
KST3 120821Z 20006KT 17/11 A3012 RMK A01 T01730110  RH  066%=      5-min Rain = 0
KST3 120822Z 20006KT 17/11 A3012 RMK A01 T01720110  RH  067%=      5-min Rain = 0
KST3 120823Z 20006KT 17/11 A3012 RMK A01 T01720110  RH  067%=      5-min Rain = 0
KST3 120824Z 19006KT 17/11 A3012 RMK A01 T01720110  RH  067%=      5-min Rain = 0
KST3 120825Z 19006KT 17/11 A3011 RMK A01 T01720110  RH  067%=      5-min Rain = 0
KST3 120826Z 19006KT 17/11 A3011 RMK A01 T01730110  RH  067%=      5-min Rain = 0
KST3 120827Z 19006KT 17/11 A3011 RMK A01 T01730110  RH  066%=      5-min Rain = 0
KST3 120828Z 20006KT 17/11 A3011 RMK A01 T01740110  RH  066%=      5-min Rain = 0
KST3 120829Z 20006KT 17/11 A3011 RMK A01 T01740110  RH  066%=      5-min Rain = 0
KST3 120830Z 20006KT 17/11 A3012 RMK A01 T01740110  RH  066%=      5-min Rain = 0
KST3 120831Z 20006KT 17/11 A3011 RMK A01 T01740110  RH  066%=      5-min Rain = 0
KST3 120832Z 20006KT 17/11 A3011 RMK A01 T01720110  RH  066%=      5-min Rain = 0
KST3 120833Z 19006KT 17/11 A3011 RMK A01 T01720109  RH  067%=      5-min Rain = 0
KST3 120834Z 20006KT 17/11 A3011 RMK A01 T01720110  RH  067%=      5-min Rain = 0
KST3 120835Z 20006KT 17/11 A3011 RMK A01 T01720109  RH  067%=      5-min Rain = 0
KST3 120836Z 19007KT 17/11 A3011 RMK A01 T01730110  RH  066%=      5-min Rain = 0
KST3 120837Z 20006KT 17/11 A3011 RMK A01 T01740110  RH  066%=      5-min Rain = 0
KST3 120838Z 20006KT 18/11 A3011 RMK A01 T01750110  RH  066%=      5-min Rain = 0
KST3 120839Z 20006KT 18/11 A3011 RMK A01 T01770110  RH  065%=      5-min Rain = 0
KST3 120840Z 20006KT 18/11 A3011 RMK A01 T01780110  RH  065%=      5-min Rain = 0
KST3 120841Z 20006KT 18/11 A3011 RMK A01 T01780110  RH  064%=      5-min Rain = 0
KST3 120842Z 20007KT 18/11 A3011 RMK A01 T01770110  RH  065%=      5-min Rain = 0
KST3 120843Z 19007KT 18/11 A3011 RMK A01 T01770110  RH  065%=      5-min Rain = 0
KST3 120844Z 20006KT 18/11 A3011 RMK A01 T01760109  RH  065%=      5-min Rain = 0
KST3 120845Z 20007KT 18/11 A3011 RMK A01 T01760109  RH  065%=      5-min Rain = 0
KST3 120846Z 20007KT 18/11 A3011 RMK A01 T01760109  RH  065%=      5-min Rain = 0
KST3 120847Z 20006KT 18/11 A3011 RMK A01 T01760109  RH  065%=      5-min Rain = 0
KST3 120848Z 20006KT 18/11 A3011 RMK A01 T01750109  RH  065%=      5-min Rain = 0
KST3 120849Z 20006KT 18/11 A3011 RMK A01 T01750108  RH  065%=      5-min Rain = 0
KST3 120850Z 20007KT 18/11 A3011 RMK A01 T01750109  RH  065%=      5-min Rain = 0
KST3 120851Z 20007KT 18/11 A3011 RMK A01 T01750108  RH  065%=      5-min Rain = 0
KST3 120852Z 20007KT 18/11 A3011 RMK A01 T01750108  RH  065%=      5-min Rain = 0
KST3 120853Z 20007KT 17/11 A3011 RMK A01 T01740108  RH  065%=      5-min Rain = 0
KST3 120854Z 20007KT 18/11 A3011 RMK A01 T01750108  RH  065%=      5-min Rain = 0
KST3 120855Z 20007KT 18/11 A3011 RMK A01 T01760108  RH  064%=      5-min Rain = 0
KST3 120856Z 20007KT 18/11 A3011 RMK A01 T01760108  RH  064%=      5-min Rain = 0
KST3 120857Z 20007KT 18/11 A3011 RMK A01 T01760108  RH  064%=      5-min Rain = 0
KST3 120858Z 20007KT 18/11 A3011 RMK A01 T01760108  RH  064%=      5-min Rain = 0
KST3 120859Z 20007KT 18/11 A3011 RMK A01 T01750107  RH  065%=      5-min Rain = 0
KST3 120900Z 20007KT 17/11 A3011 RMK A01 T01740107  RH  065%=      5-min Rain = 0
KST3 120901Z 20007KT 17/11 A301 RMK A01 T01740107  RH  065%=      5-min Rain = 0
KST3 120902Z 20007KT 17/11 A301 RMK A01 T01740108  RH  065%=      5-min Rain = 0
KST3 120903Z 20007KT 17/11 A301 RMK A01 T01740107  RH  065%=      5-min Rain = 0
KST3 120904Z 20007KT 17/11 A301 RMK A01 T01740108  RH  065%=      5-min Rain = 0
KST3 120905Z 20007KT 17/11 A301 RMK A01 T01730107  RH  065%=      5-min Rain = 0
KST3 120906Z 20007KT 17/11 A301 RMK A01 T01740107  RH  065%=      5-min Rain = 0
KST3 120907Z 21007KT 17/11 A301 RMK A01 T01730107  RH  065%=      5-min Rain = 0
KST3 120908Z 21007KT 17/11 A301 RMK A01 T01720107  RH  065%=      5-min Rain = 0
KST3 120909Z 21007KT 17/11 A301 RMK A01 T01710106  RH  066%=      5-min Rain = 0
KST3 120910Z 20007KT 17/11 A301 RMK A01 T01700107  RH  066%=      5-min Rain = 0
KST3 120911Z 20006KT 17/11 A301 RMK A01 T01700107  RH  066%=      5-min Rain = 0
KST3 120912Z 20006KT 17/11 A301 RMK A01 T01690107  RH  067%=      5-min Rain = 0
KST3 120913Z 19006KT 17/11 A301 RMK A01 T01700107  RH  067%=      5-min Rain = 0
KST3 120914Z 19006KT 17/11 A301 RMK A01 T01710108  RH  066%=      5-min Rain = 0
KST3 120915Z 19006KT 17/11 A301 RMK A01 T01730108  RH  066%=      5-min Rain = 0
KST3 120916Z 18006KT 17/11 A301 RMK A01 T01740108  RH  065%=      5-min Rain = 0
KST3 120917Z 18005KT 17/11 A301 RMK A01 T01730107  RH  065%=      5-min Rain = 0
KST3 120918Z 17005KT 17/11 A301 RMK A01 T01710106  RH  065%=      5-min Rain = 0
KST3 120919Z 17006KT 17/11 A301 RMK A01 T01700106  RH  066%=      5-min Rain = 0
KST3 120920Z 17005KT 17/11 A301 RMK A01 T01690106  RH  066%=      5-min Rain = 0
KST3 120921Z 17006KT 17/11 A301 RMK A01 T01680106  RH  067%=      5-min Rain = 0
KST3 120922Z 16005KT 17/11 A301 RMK A01 T01680106  RH  067%=      5-min Rain = 0
KST3 120923Z 16005KT 17/11 A301 RMK A01 T01670106  RH  067%=      5-min Rain = 0
KST3 120924Z 16005KT 17/11 A3011 RMK A01 T01670106  RH  067%=      5-min Rain = 0
KST3 120925Z 16005KT 17/11 A3011 RMK A01 T01680107  RH  067%=      5-min Rain = 0
KST3 120926Z 16005KT 17/11 A3011 RMK A01 T01690107  RH  067%=      5-min Rain = 0
KST3 120927Z 16004KT 17/11 A3011 RMK A01 T01700107  RH  066%=      5-min Rain = 0
KST3 120928Z 16004KT 17/11 A3011 RMK A01 T01720108  RH  066%=      5-min Rain = 0
KST3 120929Z 16004KT 17/11 A301 RMK A01 T01730108  RH  065%=      5-min Rain = 0
KST3 120930Z 17005KT 17/11 A301 RMK A01 T01740107  RH  065%=      5-min Rain = 0
KST3 120931Z 17005KT 18/11 A301 RMK A01 T01760108  RH  064%=      5-min Rain = 0
KST3 120932Z 17005KT 18/11 A301 RMK A01 T01770108  RH  064%=      5-min Rain = 0
KST3 120933Z 17005KT 18/11 A301 RMK A01 T01780108  RH  064%=      5-min Rain = 0
KST3 120934Z 18005KT 18/11 A301 RMK A01 T01780108  RH  063%=      5-min Rain = 0
KST3 120935Z 18005KT 18/11 A301 RMK A01 T01790108  RH  063%=      5-min Rain = 0
KST3 120936Z 18004KT 18/11 A301 RMK A01 T01790108  RH  063%=      5-min Rain = 0
KST3 120937Z 18004KT 18/11 A301 RMK A01 T01790108  RH  063%=      5-min Rain = 0
KST3 120938Z 19005KT 18/11 A301 RMK A01 T01790108  RH  063%=      5-min Rain = 0
KST3 120939Z 19004KT 18/11 A301 RMK A01 T01790108  RH  063%=      5-min Rain = 0
KST3 120940Z 19004KT 18/11 A301 RMK A01 T01780107  RH  063%=      5-min Rain = 0
KST3 120941Z 19005KT 18/11 A301 RMK A01 T01750107  RH  064%=      5-min Rain = 0
KST3 120942Z 19004KT 17/11 A301 RMK A01 T01740106  RH  065%=      5-min Rain = 0
KST3 120943Z 19004KT 17/11 A301 RMK A01 T01730107  RH  065%=      5-min Rain = 0
KST3 120944Z 20005KT 17/11 A301 RMK A01 T01720106  RH  065%=      5-min Rain = 0
KST3 120945Z 20005KT 17/11 A301 RMK A01 T01710106  RH  066%=      5-min Rain = 0
KST3 120946Z 20004KT 17/11 A301 RMK A01 T01700106  RH  066%=      5-min Rain = 0
KST3 120947Z 20005KT 17/11 A301 RMK A01 T01700107  RH  066%=      5-min Rain = 0
KST3 120948Z 20004KT 17/11 A301 RMK A01 T01700107  RH  066%=      5-min Rain = 0
KST3 120949Z 20004KT 17/11 A301 RMK A01 T01700107  RH  066%=      5-min Rain = 0
KST3 120950Z 20004KT 17/11 A301 RMK A01 T01700106  RH  066%=      5-min Rain = 0
KST3 120951Z 20004KT 17/11 A301 RMK A01 T01700107  RH  066%=      5-min Rain = 0
KST3 120952Z 19004KT 17/11 A301 RMK A01 T01690107  RH  067%=      5-min Rain = 0
KST3 120953Z 19004KT 17/11 A301 RMK A01 T01680107  RH  067%=      5-min Rain = 0
KST3 120954Z 19004KT 17/11 A301 RMK A01 T01690107  RH  067%=      5-min Rain = 0
KST3 120955Z 19005KT 17/11 A301 RMK A01 T01680107  RH  067%=      5-min Rain = 0
KST3 120956Z 19005KT 17/11 A301 RMK A01 T01690107  RH  067%=      5-min Rain = 0
KST3 120957Z 19005KT 17/11 A301 RMK A01 T01700107  RH  066%=      5-min Rain = 0
KST3 120958Z 19005KT 17/11 A301 RMK A01 T01700107  RH  066%=      5-min Rain = 0
KST3 120959Z 19004KT 17/11 A301 RMK A01 T01710107  RH  066%=      5-min Rain = 0
KST3 121000Z 20004KT 17/11 A301 RMK A01 T01710107  RH  066%=      5-min Rain = 0
KST3 121001Z 20005KT 17/11 A301 RMK A01 T01700107  RH  066%=      5-min Rain = 0
KST3 121002Z 20005KT 17/11 A301 RMK A01 T01690107  RH  067%=      5-min Rain = 0
KST3 121003Z 20004KT 17/11 A301 RMK A01 T01690107  RH  067%=      5-min Rain = 0
KST3 121004Z 20004KT 17/11 A301 RMK A01 T01680107  RH  067%=      5-min Rain = 0
KST3 121005Z 20004KT 17/11 A301 RMK A01 T01690107  RH  067%=      5-min Rain = 0
KST3 121006Z 19004KT 17/11 A301 RMK A01 T01680107  RH  067%=      5-min Rain = 0
KST3 121007Z 19005KT 17/11 A3009 RMK A01 T01680107  RH  067%=      5-min Rain = 0
KST3 121008Z 19005KT 17/11 A3009 RMK A01 T01680107  RH  067%=      5-min Rain = 0
KST3 121009Z 19005KT 17/11 A3009 RMK A01 T01680107  RH  067%=      5-min Rain = 0
KST3 121010Z 19005KT 17/11 A3009 RMK A01 T01690107  RH  067%=      5-min Rain = 0
KST3 121011Z 19005KT 17/11 A3009 RMK A01 T01690107  RH  067%=      5-min Rain = 0
KST3 121012Z 18005KT 17/11 A3009 RMK A01 T01690108  RH  067%=      5-min Rain = 0
KST3 121013Z 18005KT 17/11 A3009 RMK A01 T01700108  RH  067%=      5-min Rain = 0
KST3 121014Z 18005KT 17/11 A301 RMK A01 T01710108  RH  067%=      5-min Rain = 0
KST3 121015Z 18005KT 17/11 A301 RMK A01 T01700108  RH  067%=      5-min Rain = 0
KST3 121016Z 17006KT 17/11 A301 RMK A01 T01700108  RH  067%=      5-min Rain = 0
KST3 121017Z 17006KT 17/11 A3009 RMK A01 T01700108  RH  067%=      5-min Rain = 0
KST3 121018Z 17006KT 17/11 A3009 RMK A01 T01690108  RH  067%=      5-min Rain = 0
KST3 121019Z 17006KT 17/11 A3009 RMK A01 T01690107  RH  067%=      5-min Rain = 0
KST3 121020Z 17006KT 17/11 A3009 RMK A01 T01670107  RH  068%=      5-min Rain = 0
KST3 121021Z 17006KT 17/11 A3009 RMK A01 T01670108  RH  068%=      5-min Rain = 0
KST3 121022Z 18006KT 17/11 A3009 RMK A01 T01670107  RH  068%=      5-min Rain = 0
KST3 121023Z 18007KT 17/11 A3009 RMK A01 T01680108  RH  068%=      5-min Rain = 0
KST3 121024Z 18007KT 17/11 A3009 RMK A01 T01690108  RH  067%=      5-min Rain = 0
KST3 121025Z 18007KT 17/11 A3009 RMK A01 T01700109  RH  067%=      5-min Rain = 0
KST3 121026Z 18007KT 17/11 A3009 RMK A01 T01710109  RH  067%=      5-min Rain = 0
KST3 121027Z 18007KT 17/11 A3009 RMK A01 T01710109  RH  067%=      5-min Rain = 0
KST3 121028Z 19007KT 17/11 A3009 RMK A01 T01720109  RH  066%=      5-min Rain = 0
KST3 121029Z 18006KT 17/11 A3009 RMK A01 T01730110  RH  066%=      5-min Rain = 0
KST3 121030Z 19006KT 17/11 A3009 RMK A01 T01730110  RH  066%=      5-min Rain = 0
KST3 121031Z 19005KT 17/11 A3009 RMK A01 T01730109  RH  066%=      5-min Rain = 0
KST3 121032Z 19005KT 17/11 A3009 RMK A01 T01730109  RH  066%=      5-min Rain = 0
KST3 121033Z 19005KT 17/11 A3009 RMK A01 T01730109  RH  066%=      5-min Rain = 0
KST3 121034Z 18005KT 17/11 A3009 RMK A01 T01720109  RH  066%=      5-min Rain = 0
KST3 121035Z 18005KT 17/11 A3009 RMK A01 T01710108  RH  066%=      5-min Rain = 0
KST3 121036Z 18005KT 17/11 A3009 RMK A01 T01700108  RH  067%=      5-min Rain = 0
KST3 121037Z 18005KT 17/11 A3009 RMK A01 T01700108  RH  067%=      5-min Rain = 0
KST3 121038Z 18006KT 17/11 A3009 RMK A01 T01700109  RH  067%=      5-min Rain = 0
KST3 121039Z 18006KT 17/11 A3009 RMK A01 T01700109  RH  067%=      5-min Rain = 0
KST3 121040Z 18006KT 17/11 A3009 RMK A01 T01700109  RH  067%=      5-min Rain = 0
KST3 121041Z 18006KT 17/11 A3009 RMK A01 T01700108  RH  067%=      5-min Rain = 0
KST3 121042Z 18005KT 17/11 A3009 RMK A01 T01700108  RH  067%=      5-min Rain = 0
KST3 121043Z 18005KT 17/11 A3009 RMK A01 T01700108  RH  067%=      5-min Rain = 0
KST3 121044Z 18005KT 17/11 A3009 RMK A01 T01700109  RH  067%=      5-min Rain = 0
KST3 121045Z 18006KT 17/11 A3009 RMK A01 T01710109  RH  067%=      5-min Rain = 0
KST3 121046Z 18006KT 17/11 A3009 RMK A01 T01700109  RH  067%=      5-min Rain = 0
KST3 121047Z 18006KT 17/11 A3009 RMK A01 T01700109  RH  067%=      5-min Rain = 0
KST3 121048Z 18006KT 17/11 A3009 RMK A01 T01700109  RH  067%=      5-min Rain = 0
KST3 121049Z 18006KT 17/11 A3009 RMK A01 T01700109  RH  067%=      5-min Rain = 0
KST3 121050Z 18006KT 17/11 A3009 RMK A01 T01700109  RH  067%=      5-min Rain = 0
KST3 121051Z 18006KT 17/11 A3009 RMK A01 T01700109  RH  067%=      5-min Rain = 0
KST3 121052Z 18005KT 17/11 A3009 RMK A01 T01700109  RH  067%=      5-min Rain = 0
KST3 121053Z 17006KT 17/11 A3009 RMK A01 T01700109  RH  067%=      5-min Rain = 0
KST3 121054Z 17006KT 17/11 A3009 RMK A01 T01690108  RH  067%=      5-min Rain = 0
KST3 121055Z 17006KT 17/11 A3009 RMK A01 T01680108  RH  068%=      5-min Rain = 0
KST3 121056Z 17005KT 17/11 A3009 RMK A01 T01670108  RH  068%=      5-min Rain = 0
KST3 121057Z 16005KT 17/11 A3009 RMK A01 T01660108  RH  068%=      5-min Rain = 0
KST3 121058Z 16005KT 17/11 A3009 RMK A01 T01660107  RH  068%=      5-min Rain = 0
KST3 121059Z 16005KT 17/11 A3009 RMK A01 T01650107  RH  068%=      5-min Rain = 0
KST3 121100Z 16005KT 17/11 A3009 RMK A01 T01650107  RH  069%=      5-min Rain = 0
KST3 121101Z 16005KT 17/11 A3009 RMK A01 T01650108  RH  069%=      5-min Rain = 0
KST3 121102Z 16005KT 17/11 A3009 RMK A01 T01650108  RH  069%=      5-min Rain = 0
KST3 121103Z 16005KT 17/11 A3009 RMK A01 T01650108  RH  069%=      5-min Rain = 0
KST3 121104Z 17004KT 16/11 A3009 RMK A01 T01640108  RH  069%=      5-min Rain = 0
KST3 121105Z 17004KT 17/11 A3009 RMK A01 T01650108  RH  069%=      5-min Rain = 0
KST3 121106Z 17004KT 17/11 A3009 RMK A01 T01650109  RH  069%=      5-min Rain = 0
KST3 121107Z 17005KT 17/11 A3009 RMK A01 T01650108  RH  069%=      5-min Rain = 0
KST3 121108Z 18005KT 17/11 A3009 RMK A01 T01650109  RH  069%=      5-min Rain = 0
KST3 121109Z 18005KT 17/11 A3009 RMK A01 T01660109  RH  069%=      5-min Rain = 0
KST3 121110Z 18005KT 17/11 A3009 RMK A01 T01660109  RH  069%=      5-min Rain = 0
KST3 121111Z 18005KT 17/11 A3009 RMK A01 T01660109  RH  069%=      5-min Rain = 0
KST3 121112Z 18005KT 17/11 A3009 RMK A01 T01660109  RH  069%=      5-min Rain = 0
KST3 121113Z 18005KT 17/11 A3009 RMK A01 T01650109  RH  069%=      5-min Rain = 0
KST3 121114Z 18005KT 16/11 A3009 RMK A01 T01640109  RH  070%=      5-min Rain = 0
KST3 121115Z 18006KT 17/11 A3009 RMK A01 T01650109  RH  070%=      5-min Rain = 0
KST3 121116Z 18006KT 16/11 A3008 RMK A01 T01640109  RH  070%=      5-min Rain = 0
KST3 121117Z 18006KT 16/11 A3008 RMK A01 T01640109  RH  070%=      5-min Rain = 0
KST3 121118Z 18006KT 16/11 A3008 RMK A01 T01640109  RH  070%=      5-min Rain = 0
KST3 121119Z 18006KT 16/11 A3008 RMK A01 T01640109  RH  070%=      5-min Rain = 0
KST3 121120Z 18006KT 16/11 A3008 RMK A01 T01640109  RH  070%=      5-min Rain = 0
KST3 121121Z 18006KT 17/11 A3008 RMK A01 T01650109  RH  070%=      5-min Rain = 0
KST3 121122Z 18006KT 17/11 A3008 RMK A01 T01650110  RH  070%=      5-min Rain = 0
KST3 121123Z 18006KT 17/11 A3008 RMK A01 T01650110  RH  070%=      5-min Rain = 0
KST3 121124Z 18006KT 17/11 A3008 RMK A01 T01650109  RH  070%=      5-min Rain = 0
KST3 121125Z 18006KT 17/11 A3008 RMK A01 T01650110  RH  070%=      5-min Rain = 0
KST3 121126Z 18005KT 17/11 A3008 RMK A01 T01650110  RH  070%=      5-min Rain = 0
KST3 121127Z 18005KT 17/11 A3008 RMK A01 T01650110  RH  070%=      5-min Rain = 0
KST3 121128Z 17005KT 16/11 A3008 RMK A01 T01640110  RH  070%=      5-min Rain = 0
KST3 121129Z 17005KT 16/11 A3008 RMK A01 T01640110  RH  070%=      5-min Rain = 0
KST3 121130Z 17005KT 16/11 A3008 RMK A01 T01630109  RH  070%=      5-min Rain = 0
KST3 121131Z 16005KT 16/11 A3008 RMK A01 T01620108  RH  071%=      5-min Rain = 0
KST3 121132Z 16005KT 16/11 A3008 RMK A01 T01600108  RH  071%=      5-min Rain = 0
KST3 121133Z 15004KT 16/11 A3008 RMK A01 T01580106  RH  071%=      5-min Rain = 0
KST3 121134Z 14004KT 16/11 A3008 RMK A01 T01560106  RH  072%=      5-min Rain = 0
KST3 121135Z 15004KT 16/11 A3008 RMK A01 T01560107  RH  073%=      5-min Rain = 0
KST3 121136Z 15005KT 16/11 A3008 RMK A01 T01550108  RH  073%=      5-min Rain = 0
KST3 121137Z 14004KT 16/11 A3008 RMK A01 T01550107  RH  073%=      5-min Rain = 0
KST3 121138Z 14004KT 15/11 A3009 RMK A01 T01540107  RH  074%=      5-min Rain = 0
KST3 121139Z 14004KT 15/11 A3009 RMK A01 T01540108  RH  074%=      5-min Rain = 0
KST3 121140Z 14003KT 15/11 A3009 RMK A01 T01540108  RH  074%=      5-min Rain = 0
KST3 121141Z 14003KT 15/11 A3009 RMK A01 T01540108  RH  074%=      5-min Rain = 0
KST3 121142Z 14004KT 15/11 A3009 RMK A01 T01540108  RH  074%=      5-min Rain = 0
KST3 121143Z 13005KT 15/11 A3008 RMK A01 T01540108  RH  074%=      5-min Rain = 0
KST3 121144Z 13005KT 15/11 A3008 RMK A01 T01530108  RH  074%=      5-min Rain = 0
KST3 121145Z 13005KT 15/11 A3008 RMK A01 T01530109  RH  075%=      5-min Rain = 0
KST3 121146Z 13005KT 15/11 A3008 RMK A01 T01530108  RH  075%=      5-min Rain = 0
KST3 121147Z 13005KT 15/11 A3008 RMK A01 T01520108  RH  075%=      5-min Rain = 0
KST3 121148Z 14005KT 15/11 A3008 RMK A01 T01520109  RH  075%=      5-min Rain = 0
KST3 121149Z 14004KT 15/11 A3008 RMK A01 T01520109  RH  075%=      5-min Rain = 0
KST3 121150Z 14004KT 15/11 A3008 RMK A01 T01510109  RH  076%=      5-min Rain = 0
KST3 121151Z 15004KT 15/11 A3008 RMK A01 T01510109  RH  076%=      5-min Rain = 0
KST3 121152Z 15004KT 15/11 A3008 RMK A01 T01500108  RH  076%=      5-min Rain = 0
KST3 121153Z 15004KT 15/11 A3008 RMK A01 T01490108  RH  076%=      5-min Rain = 0
KST3 121154Z 15004KT 15/11 A3008 RMK A01 T01490108  RH  076%=      5-min Rain = 0
KST3 121155Z 15004KT 15/11 A3008 RMK A01 T01480107  RH  077%=      5-min Rain = 0
KST3 121156Z 15004KT 15/11 A3008 RMK A01 T01480108  RH  077%=      5-min Rain = 0
KST3 121157Z 15004KT 15/11 A3008 RMK A01 T01470108  RH  077%=      5-min Rain = 0
KST3 121158Z 15004KT 15/11 A3008 RMK A01 T01470108  RH  077%=      5-min Rain = 0
KST3 121159Z 14003KT 15/11 A3009 RMK A01 T01470108  RH  077%=      5-min Rain = 0
KST3 121200Z 14003KT 15/11 A3009 RMK A01 T01460107  RH  077%=      5-min Rain = 0
KST3 121201Z 14003KT 15/11 A3009 RMK A01 T01460108  RH  078%=      5-min Rain = 0
KST3 121202Z 14003KT 15/11 A3009 RMK A01 T01460108  RH  078%=      5-min Rain = 0
KST3 121203Z 14004KT 15/11 A3009 RMK A01 T01460108  RH  078%=      5-min Rain = 0
KST3 121204Z 14004KT 15/11 A3009 RMK A01 T01460108  RH  078%=      5-min Rain = 0
KST3 121205Z 14004KT 15/11 A3009 RMK A01 T01460108  RH  078%=      5-min Rain = 0
KST3 121206Z 15003KT 15/11 A3009 RMK A01 T01460108  RH  078%=      5-min Rain = 0
KST3 121207Z 16004KT 15/11 A3009 RMK A01 T01460108  RH  078%=      5-min Rain = 0
KST3 121208Z 16004KT 15/11 A3008 RMK A01 T01460108  RH  078%=      5-min Rain = 0
KST3 121209Z 17004KT 15/11 A3008 RMK A01 T01470109  RH  078%=      5-min Rain = 0
KST3 121210Z 18004KT 15/11 A3008 RMK A01 T01480109  RH  077%=      5-min Rain = 0
KST3 121211Z 18005KT 15/11 A3008 RMK A01 T01490109  RH  077%=      5-min Rain = 0
KST3 121212Z 19004KT 15/11 A3008 RMK A01 T01490108  RH  077%=      5-min Rain = 0
KST3 121213Z 19004KT 15/11 A3008 RMK A01 T01490108  RH  077%=      5-min Rain = 0
KST3 121214Z 18005KT 15/11 A3008 RMK A01 T01490108  RH  077%=      5-min Rain = 0
KST3 121215Z 18004KT 15/11 A3008 RMK A01 T01490108  RH  077%=      5-min Rain = 0
KST3 121216Z 18005KT 15/11 A3008 RMK A01 T01480108  RH  077%=      5-min Rain = 0
KST3 121217Z 18005KT 15/11 A3008 RMK A01 T01480108  RH  077%=      5-min Rain = 0
KST3 121218Z 17005KT 15/11 A3008 RMK A01 T01480108  RH  077%=      5-min Rain = 0
KST3 121219Z 17005KT 15/11 A3008 RMK A01 T01480108  RH  077%=      5-min Rain = 0
KST3 121220Z 18005KT 15/11 A3008 RMK A01 T01480108  RH  077%=      5-min Rain = 0
KST3 121221Z 18004KT 15/11 A3008 RMK A01 T01480108  RH  077%=      5-min Rain = 0
KST3 121222Z 18005KT 15/11 A3008 RMK A01 T01480107  RH  077%=      5-min Rain = 0
KST3 121223Z 18005KT 15/11 A3008 RMK A01 T01480108  RH  077%=      5-min Rain = 0
KST3 121224Z 18005KT 15/11 A3008 RMK A01 T01480108  RH  077%=      5-min Rain = 0
KST3 121225Z 18005KT 15/11 A3008 RMK A01 T01490108  RH  077%=      5-min Rain = 0
KST3 121226Z 18005KT 15/11 A3008 RMK A01 T01490108  RH  076%=      5-min Rain = 0
KST3 121227Z 18005KT 15/11 A3008 RMK A01 T01500109  RH  076%=      5-min Rain = 0
KST3 121228Z 18005KT 15/11 A3008 RMK A01 T01510109  RH  076%=      5-min Rain = 0
KST3 121229Z 18005KT 15/11 A3008 RMK A01 T01520109  RH  076%=      5-min Rain = 0
KST3 121230Z 18005KT 15/11 A3008 RMK A01 T01520109  RH  075%=      5-min Rain = 0
KST3 121231Z 18005KT 15/11 A3008 RMK A01 T01530109  RH  075%=      5-min Rain = 0
KST3 121232Z 18006KT 15/11 A3008 RMK A01 T01530109  RH  075%=      5-min Rain = 0
KST3 121233Z 18005KT 15/11 A3008 RMK A01 T01530109  RH  075%=      5-min Rain = 0
KST3 121234Z 18005KT 15/11 A3008 RMK A01 T01540109  RH  075%=      5-min Rain = 0
KST3 121235Z 18005KT 15/11 A3008 RMK A01 T01540109  RH  075%=      5-min Rain = 0
KST3 121236Z 17005KT 15/11 A3008 RMK A01 T01540109  RH  075%=      5-min Rain = 0
KST3 121237Z 17006KT 15/11 A3008 RMK A01 T01540109  RH  074%=      5-min Rain = 0
KST3 121238Z 18006KT 15/11 A3008 RMK A01 T01540109  RH  074%=      5-min Rain = 0
KST3 121239Z 18005KT 15/11 A3008 RMK A01 T01540109  RH  074%=      5-min Rain = 0
KST3 121240Z 18005KT 15/11 A3008 RMK A01 T01540109  RH  074%=      5-min Rain = 0
KST3 121241Z 18005KT 16/11 A3008 RMK A01 T01550109  RH  074%=      5-min Rain = 0
KST3 121242Z 18005KT 16/11 A3008 RMK A01 T01550109  RH  074%=      5-min Rain = 0
KST3 121243Z 18005KT 16/11 A3008 RMK A01 T01550109  RH  074%=      5-min Rain = 0
KST3 121244Z 18005KT 16/11 A3008 RMK A01 T01550109  RH  074%=      5-min Rain = 0
KST3 121245Z 17005KT 16/11 A3008 RMK A01 T01550109  RH  074%=      5-min Rain = 0
KST3 121246Z 17005KT 16/11 A3008 RMK A01 T01550110  RH  074%=      5-min Rain = 0
KST3 121247Z 17005KT 15/11 A3008 RMK A01 T01540109  RH  074%=      5-min Rain = 0
KST3 121248Z 17005KT 15/11 A3008 RMK A01 T01540109  RH  075%=      5-min Rain = 0
KST3 121249Z 17005KT 15/11 A3008 RMK A01 T01540109  RH  075%=      5-min Rain = 0
KST3 121250Z 17005KT 15/11 A3008 RMK A01 T01530109  RH  075%=      5-min Rain = 0
KST3 121251Z 17005KT 15/11 A3008 RMK A01 T01530109  RH  075%=      5-min Rain = 0
KST3 121252Z 17005KT 15/11 A3008 RMK A01 T01530109  RH  075%=      5-min Rain = 0
KST3 121253Z 16005KT 15/11 A3008 RMK A01 T01530110  RH  075%=      5-min Rain = 0
KST3 121254Z 16005KT 15/11 A3008 RMK A01 T01530109  RH  075%=      5-min Rain = 0
KST3 121255Z 16005KT 15/11 A3008 RMK A01 T01530110  RH  075%=      5-min Rain = 0
KST3 121256Z 16004KT 15/11 A3008 RMK A01 T01530110  RH  075%=      5-min Rain = 0
KST3 121257Z 16003KT 15/11 A3008 RMK A01 T01540110  RH  075%=      5-min Rain = 0
KST3 121258Z 16002KT 15/11 A3008 RMK A01 T01540110  RH  075%=      5-min Rain = 0
KST3 121259Z 16002KT 16/11 A3008 RMK A01 T01550110  RH  075%=      5-min Rain = 0
KST3 121300Z 15002KT 16/11 A3008 RMK A01 T01550110  RH  075%=      5-min Rain = 0
KST3 121301Z 15002KT 16/11 A3008 RMK A01 T01560110  RH  074%=      5-min Rain = 0
KST3 121302Z 15001KT 16/11 A3008 RMK A01 T01570111  RH  074%=      5-min Rain = 0
KST3 121303Z 16002KT 16/11 A3008 RMK A01 T01580111  RH  074%=      5-min Rain = 0
KST3 121304Z 16002KT 16/11 A3008 RMK A01 T01580111  RH  073%=      5-min Rain = 0
KST3 121305Z 17002KT 16/11 A3008 RMK A01 T01590111  RH  073%=      5-min Rain = 0
KST3 121306Z 16002KT 16/11 A3008 RMK A01 T01600111  RH  073%=      5-min Rain = 0
KST3 121307Z 17002KT 16/11 A3008 RMK A01 T01600111  RH  073%=      5-min Rain = 0
KST3 121308Z 18002KT 16/11 A3008 RMK A01 T01610111  RH  072%=      5-min Rain = 0
KST3 121309Z 19002KT 16/11 A3008 RMK A01 T01610111  RH  072%=      5-min Rain = 0
KST3 121310Z 20002KT 16/11 A3008 RMK A01 T01610111  RH  072%=      5-min Rain = 0
KST3 121311Z 20003KT 16/11 A3008 RMK A01 T01620111  RH  072%=      5-min Rain = 0
KST3 121312Z 20003KT 16/11 A3008 RMK A01 T01620111  RH  072%=      5-min Rain = 0
KST3 121313Z 20003KT 16/11 A3008 RMK A01 T01630110  RH  071%=      5-min Rain = 0
KST3 121314Z 20003KT 16/11 A3008 RMK A01 T01630111  RH  071%=      5-min Rain = 0
KST3 121315Z 20002KT 16/11 A3008 RMK A01 T01630111  RH  071%=      5-min Rain = 0
KST3 121316Z 19003KT 16/11 A3008 RMK A01 T01630111  RH  071%=      5-min Rain = 0
KST3 121317Z 19003KT 16/11 A3008 RMK A01 T01640112  RH  071%=      5-min Rain = 0
KST3 121318Z 18003KT 16/11 A3008 RMK A01 T01640112  RH  071%=      5-min Rain = 0
KST3 121319Z 17002KT 17/11 A3008 RMK A01 T01650112  RH  071%=      5-min Rain = 0
KST3 121320Z 16002KT 17/11 A3009 RMK A01 T01660112  RH  071%=      5-min Rain = 0
KST3 121321Z 15003KT 17/11 A3009 RMK A01 T01670113  RH  070%=      5-min Rain = 0
KST3 121322Z 14003KT 17/11 A3009 RMK A01 T01680112  RH  070%=      5-min Rain = 0
KST3 121323Z 15002KT 17/11 A3009 RMK A01 T01690113  RH  070%=      5-min Rain = 0
KST3 121324Z 14002KT 17/11 A3009 RMK A01 T01690113  RH  069%=      5-min Rain = 0
KST3 121325Z 13002KT 17/12 A3009 RMK A01 T01700115  RH  070%=      5-min Rain = 0
KST3 121326Z 13002KT 17/11 A3009 RMK A01 T01700114  RH  069%=      5-min Rain = 0
KST3 121327Z 13002KT 17/11 A3009 RMK A01 T01700114  RH  069%=      5-min Rain = 0
KST3 121328Z 12003KT 17/11 A3009 RMK A01 T01710114  RH  069%=      5-min Rain = 0
KST3 121329Z 10003KT 17/11 A3009 RMK A01 T01710113  RH  069%=      5-min Rain = 0
KST3 121330Z 09004KT 17/12 A3009 RMK A01 T01710115  RH  069%=      5-min Rain = 0
KST3 121331Z 09004KT 17/11 A3009 RMK A01 T01710114  RH  069%=      5-min Rain = 0
KST3 121332Z 09003KT 17/11 A3009 RMK A01 T01700114  RH  069%=      5-min Rain = 0
KST3 121333Z 09003KT 17/11 A3009 RMK A01 T01680113  RH  070%=      5-min Rain = 0
KST3 121334Z 08002KT 17/11 A3009 RMK A01 T01670112  RH  070%=      5-min Rain = 0
KST3 121335Z 09002KT 17/11 A3009 RMK A01 T01660112  RH  071%=      5-min Rain = 0
KST3 121336Z 08003KT 17/11 A3009 RMK A01 T01650112  RH  071%=      5-min Rain = 0
KST3 121337Z 07002KT 16/11 A3009 RMK A01 T01640112  RH  071%=      5-min Rain = 0
KST3 121338Z 07002KT 16/11 A3009 RMK A01 T01640112  RH  071%=      5-min Rain = 0
KST3 121339Z 07002KT 16/11 A3009 RMK A01 T01640112  RH  071%=      5-min Rain = 0
KST3 121340Z 08002KT 17/11 A3009 RMK A01 T01650112  RH  071%=      5-min Rain = 0
KST3 121341Z 09002KT 17/11 A3009 RMK A01 T01650112  RH  071%=      5-min Rain = 0
KST3 121342Z 09002KT 17/11 A3009 RMK A01 T01650112  RH  071%=      5-min Rain = 0
KST3 121343Z 10002KT 17/11 A3009 RMK A01 T01660112  RH  070%=      5-min Rain = 0
KST3 121344Z 10002KT 17/11 A3009 RMK A01 T01670112  RH  070%=      5-min Rain = 0
KST3 121345Z 10002KT 17/11 A3009 RMK A01 T01670113  RH  070%=      5-min Rain = 0
KST3 121346Z 10001KT 17/11 A3009 RMK A01 T01680113  RH  070%=      5-min Rain = 0
KST3 121347Z 11001KT 17/11 A3009 RMK A01 T01690113  RH  069%=      5-min Rain = 0
KST3 121348Z 12002KT 17/11 A3009 RMK A01 T01700112  RH  069%=      5-min Rain = 0
KST3 121349Z 12002KT 17/11 A3009 RMK A01 T01690113  RH  069%=      5-min Rain = 0
KST3 121350Z 12003KT 17/11 A3009 RMK A01 T01700113  RH  069%=      5-min Rain = 0
KST3 121353Z 13002KT 17/11 A3009 RMK A01 T01720113  RH  068%=      5-min Rain = 0
KST3 121354Z 14002KT 17/11 A3009 RMK A01 T01720112  RH  068%=      5-min Rain = 0
KST3 121355Z 13002KT 17/11 A3009 RMK A01 T01720113  RH  068%=      5-min Rain = 0
KST3 121356Z 14003KT 17/11 A3009 RMK A01 T01730113  RH  067%=      5-min Rain = 0
KST3 121357Z 14003KT 17/11 A3009 RMK A01 T01740112  RH  067%=      5-min Rain = 0
KST3 121358Z 14002KT 17/11 A3009 RMK A01 T01740112  RH  067%=      5-min Rain = 0
KST3 121359Z 14002KT 17/11 A3009 RMK A01 T01740112  RH  067%=      5-min Rain = 0
KST3 121400Z 14003KT 17/11 A3009 RMK A01 T01740113  RH  067%=      5-min Rain = 0
KST3 121401Z 15003KT 18/11 A3009 RMK A01 T01750112  RH  067%=      5-min Rain = 0
KST3 121402Z 15003KT 18/11 A3009 RMK A01 T01750112  RH  066%=      5-min Rain = 0
KST3 121403Z 15003KT 18/11 A3009 RMK A01 T01760113  RH  066%=      5-min Rain = 0
KST3 121404Z 15003KT 18/11 A3009 RMK A01 T01770114  RH  066%=      5-min Rain = 0
KST3 121405Z 15003KT 18/11 A3009 RMK A01 T01780113  RH  066%=      5-min Rain = 0
KST3 121406Z 13003KT 18/11 A3009 RMK A01 T01780113  RH  065%=      5-min Rain = 0
KST3 121407Z 13003KT 18/11 A3009 RMK A01 T01790113  RH  065%=      5-min Rain = 0
KST3 121408Z 12003KT 18/11 A3009 RMK A01 T01800114  RH  065%=      5-min Rain = 0
KST3 121409Z 13003KT 18/11 A3009 RMK A01 T01810114  RH  065%=      5-min Rain = 0
KST3 121410Z 14004KT 18/11 A3009 RMK A01 T01830114  RH  064%=      5-min Rain = 0
KST3 121411Z 14004KT 18/11 A3009 RMK A01 T01840114  RH  063%=      5-min Rain = 0
KST3 121412Z 14004KT 19/11 A3009 RMK A01 T01850113  RH  063%=      5-min Rain = 0
KST3 121413Z 15004KT 19/11 A3009 RMK A01 T01860113  RH  063%=      5-min Rain = 0
KST3 121414Z 15003KT 19/11 A3009 RMK A01 T01870114  RH  062%=      5-min Rain = 0
KST3 121415Z 15003KT 19/12 A3009 RMK A01 T01880115  RH  062%=      5-min Rain = 0
KST3 121416Z 16002KT 19/12 A3009 RMK A01 T01900115  RH  062%=      5-min Rain = 0
KST3 121417Z 16002KT 19/11 A3009 RMK A01 T01910114  RH  061%=      5-min Rain = 0
KST3 121418Z 15003KT 19/11 A3009 RMK A01 T01910114  RH  061%=      5-min Rain = 0
KST3 121419Z 13003KT 19/11 A3009 RMK A01 T01920114  RH  061%=      5-min Rain = 0
KST3 121420Z 14003KT 19/12 A3009 RMK A01 T01930115  RH  061%=      5-min Rain = 0
KST3 121421Z 15003KT 19/11 A3009 RMK A01 T01930114  RH  060%=      5-min Rain = 0
KST3 121422Z 15004KT 19/12 A3009 RMK A01 T01940115  RH  060%=      5-min Rain = 0
KST3 121423Z 15004KT 20/12 A3009 RMK A01 T01950115  RH  060%=      5-min Rain = 0
KST3 121424Z 15003KT 20/12 A3009 RMK A01 T01950115  RH  060%=      5-min Rain = 0
KST3 121425Z 15004KT 20/11 A3009 RMK A01 T01960114  RH  059%=      5-min Rain = 0
KST3 121426Z 15004KT 20/12 A3009 RMK A01 T01960115  RH  059%=      5-min Rain = 0
KST3 121427Z 15004KT 20/12 A3009 RMK A01 T01970115  RH  059%=      5-min Rain = 0
KST3 121428Z 16004KT 20/12 A3009 RMK A01 T01980115  RH  059%=      5-min Rain = 0
KST3 121429Z 16004KT 20/12 A3009 RMK A01 T02000115  RH  058%=      5-min Rain = 0
KST3 121430Z 16004KT 20/12 A3009 RMK A01 T02000115  RH  058%=      5-min Rain = 0
KST3 121431Z 16004KT 20/12 A3009 RMK A01 T02000115  RH  058%=      5-min Rain = 0
KST3 121432Z 17004KT 20/12 A3009 RMK A01 T02010115  RH  058%=      5-min Rain = 0
KST3 121433Z 17005KT 20/11 A3009 RMK A01 T02010114  RH  057%=      5-min Rain = 0
KST3 121434Z 17004KT 20/11 A3009 RMK A01 T02020114  RH  057%=      5-min Rain = 0
KST3 121435Z 18005KT 20/11 A3009 RMK A01 T02020114  RH  057%=      5-min Rain = 0
KST3 121436Z 18004KT 20/11 A3009 RMK A01 T02030114  RH  056%=      5-min Rain = 0
KST3 121437Z 18004KT 20/11 A3009 RMK A01 T02040114  RH  056%=      5-min Rain = 0
KST3 121438Z 18004KT 21/12 A3009 RMK A01 T02060118  RH  057%=      5-min Rain = 0
KST3 121439Z 18004KT 21/12 A3009 RMK A01 T02090117  RH  055%=      5-min Rain = 0
KST3 121440Z 16005KT 21/12 A3009 RMK A01 T02100115  RH  055%=      5-min Rain = 0
KST3 121441Z 16004KT 21/12 A3009 RMK A01 T02100115  RH  055%=      5-min Rain = 0
KST3 121442Z 16004KT 21/12 A3009 RMK A01 T02100115  RH  055%=      5-min Rain = 0
KST3 121443Z 15004KT 21/12 A3009 RMK A01 T02100115  RH  055%=      5-min Rain = 0
KST3 121444Z 16004KT 21/12 A3009 RMK A01 T02090115  RH  055%=      5-min Rain = 0
KST3 121445Z 16004KT 21/12 A3009 RMK A01 T02090115  RH  055%=      5-min Rain = 0
KST3 121446Z 15004KT 21/12 A3009 RMK A01 T02100115  RH  054%=      5-min Rain = 0
KST3 121447Z 18004KT 21/12 A3009 RMK A01 T02110116  RH  054%=      5-min Rain = 0
KST3 121448Z 17003KT 21/12 A3009 RMK A01 T02130116  RH  054%=      5-min Rain = 0
KST3 121449Z 19004KT 21/12 A3009 RMK A01 T02130116  RH  054%=      5-min Rain = 0
KST3 121450Z 18004KT 21/12 A3009 RMK A01 T02130115  RH  054%=      5-min Rain = 0
KST3 121451Z 18003KT 21/12 A3009 RMK A01 T02120115  RH  054%=      5-min Rain = 0
KST3 121452Z 17004KT 21/12 A3009 RMK A01 T02130116  RH  054%=      5-min Rain = 0
KST3 121453Z 18004KT 21/12 A3009 RMK A01 T02130115  RH  053%=      5-min Rain = 0
KST3 121454Z 18004KT 21/12 A3009 RMK A01 T02140116  RH  053%=      5-min Rain = 0
KST3 121455Z 19004KT 21/12 A3009 RMK A01 T02140115  RH  053%=      5-min Rain = 0
KST3 121456Z 19004KT 21/12 A3009 RMK A01 T02140116  RH  053%=      5-min Rain = 0
KST3 121457Z 20005KT 22/12 A3009 RMK A01 T02150116  RH  053%=      5-min Rain = 0
KST3 121458Z 19003KT 22/12 A3009 RMK A01 T02150116  RH  053%=      5-min Rain = 0
KST3 121459Z 17005KT 22/12 A3009 RMK A01 T02160115  RH  053%=      5-min Rain = 0
KST3 121500Z 19004KT 22/12 A3009 RMK A01 T02170116  RH  053%=      5-min Rain = 0
KST3 121501Z 19003KT 22/12 A3009 RMK A01 T02180116  RH  052%=      5-min Rain = 0
KST3 121502Z 18004KT 22/12 A3009 RMK A01 T02190117  RH  052%=      5-min Rain = 0
KST3 121503Z 16004KT 22/12 A3009 RMK A01 T02200116  RH  052%=      5-min Rain = 0
KST3 121504Z 16005KT 22/12 A3009 RMK A01 T02200118  RH  052%=      5-min Rain = 0
KST3 121505Z 16005KT 22/12 A3009 RMK A01 T02210117  RH  051%=      5-min Rain = 0
KST3 121506Z 19005KT 22/12 A3009 RMK A01 T02220117  RH  051%=      5-min Rain = 0
KST3 121507Z 19005KT 22/12 A3009 RMK A01 T02210116  RH  051%=      5-min Rain = 0
KST3 121508Z 18005KT 22/12 A3009 RMK A01 T02210116  RH  052%=      5-min Rain = 0
KST3 121509Z 17004KT 22/12 A3009 RMK A01 T02210117  RH  052%=      5-min Rain = 0
KST3 121510Z 17004KT 22/12 A3009 RMK A01 T02230118  RH  051%=      5-min Rain = 0
KST3 121511Z 17003KT 22/12 A3009 RMK A01 T02240118  RH  051%=      5-min Rain = 0
KST3 121512Z 15004KT 22/12 A3009 RMK A01 T02240118  RH  051%=      5-min Rain = 0
KST3 121513Z 16002KT 22/12 A3009 RMK A01 T02240117  RH  051%=      5-min Rain = 0
KST3 121514Z 18004KT 22/12 A301 RMK A01 T02230118  RH  051%=      5-min Rain = 0
KST3 121515Z 18003KT 22/12 A301 RMK A01 T02230117  RH  051%=      5-min Rain = 0
KST3 121516Z 17003KT 22/12 A301 RMK A01 T02230118  RH  051%=      5-min Rain = 0
KST3 121517Z 16004KT 22/12 A301 RMK A01 T02230117  RH  051%=      5-min Rain = 0
KST3 121518Z 16005KT 22/12 A301 RMK A01 T02230117  RH  051%=      5-min Rain = 0
KST3 121519Z 16005KT 22/12 A301 RMK A01 T02240117  RH  051%=      5-min Rain = 0
KST3 121520Z 16006KT 22/12 A301 RMK A01 T02240116  RH  051%=      5-min Rain = 0
KST3 121521Z 18005KT 23/12 A301 RMK A01 T02250117  RH  051%=      5-min Rain = 0
KST3 121522Z 18005KT 23/12 A301 RMK A01 T02260117  RH  050%=      5-min Rain = 0
KST3 121523Z 19003KT 23/12 A301 RMK A01 T02250117  RH  050%=      5-min Rain = 0
KST3 121524Z 20002KT 23/12 A3009 RMK A01 T02260117  RH  050%=      5-min Rain = 0
KST3 121525Z 14004KT 23/12 A3009 RMK A01 T02270116  RH  050%=      5-min Rain = 0
KST3 121526Z 16005KT 23/12 A3009 RMK A01 T02280118  RH  050%=      5-min Rain = 0
KST3 121527Z 19005KT 23/12 A3009 RMK A01 T02300118  RH  049%=      5-min Rain = 0
KST3 121528Z 20004KT 23/12 A3009 RMK A01 T02300117  RH  049%=      5-min Rain = 0
KST3 121529Z 20005KT 23/12 A3009 RMK A01 T02310118  RH  049%=      5-min Rain = 0
KST3 121530Z 20005KT 23/12 A3009 RMK A01 T02310117  RH  049%=      5-min Rain = 0
KST3 121531Z 20003KT 23/12 A3009 RMK A01 T02300117  RH  049%=      5-min Rain = 0
KST3 121532Z 21002KT 23/12 A3009 RMK A01 T02300117  RH  049%=      5-min Rain = 0
KST3 121533Z 18005KT 23/12 A3009 RMK A01 T02310117  RH  049%=      5-min Rain = 0
KST3 121534Z 19005KT 23/12 A3009 RMK A01 T02330118  RH  048%=      5-min Rain = 0
KST3 121535Z 19004KT 23/12 A3009 RMK A01 T02340117  RH  048%=      5-min Rain = 0
KST3 121536Z 20004KT 23/12 A3009 RMK A01 T02330117  RH  048%=      5-min Rain = 0
KST3 121537Z 22002KT 23/12 A3009 RMK A01 T02320116  RH  048%=      5-min Rain = 0
KST3 121538Z 18002KT 23/12 A3009 RMK A01 T02320117  RH  048%=      5-min Rain = 0
KST3 121539Z 20004KT 23/12 A3009 RMK A01 T02330117  RH  048%=      5-min Rain = 0
KST3 121540Z 18004KT 23/12 A3009 RMK A01 T02330119  RH  048%=      5-min Rain = 0
KST3 121541Z 17004KT 24/12 A3009 RMK A01 T02350119  RH  048%=      5-min Rain = 0
KST3 121542Z 16003KT 24/12 A3009 RMK A01 T02360118  RH  047%=      5-min Rain = 0
KST3 121543Z 14003KT 24/12 A3009 RMK A01 T02360118  RH  047%=      5-min Rain = 0
KST3 121544Z 18002KT 24/12 A3009 RMK A01 T02370118  RH  047%=      5-min Rain = 0
KST3 121545Z 16003KT 24/12 A3009 RMK A01 T02390118  RH  047%=      5-min Rain = 0
KST3 121546Z 18003KT 24/12 A3009 RMK A01 T02380119  RH  047%=      5-min Rain = 0
KST3 121547Z 18004KT 24/12 A3009 RMK A01 T02390119  RH  047%=      5-min Rain = 0
KST3 121548Z 17003KT 24/12 A3009 RMK A01 T02400118  RH  046%=      5-min Rain = 0
KST3 121549Z 18003KT 24/12 A3009 RMK A01 T02390118  RH  047%=      5-min Rain = 0
KST3 121550Z 18002KT 24/12 A3009 RMK A01 T02390117  RH  046%=      5-min Rain = 0
KST3 121551Z 20001KT 24/12 A3009 RMK A01 T02390116  RH  046%=      5-min Rain = 0
KST3 121552Z 16001KT 24/12 A3009 RMK A01 T02380116  RH  046%=      5-min Rain = 0
KST3 121553Z 13004KT 24/12 A3009 RMK A01 T02390119  RH  047%=      5-min Rain = 0
KST3 121554Z 17003KT 24/12 A3009 RMK A01 T02420122  RH  047%=      5-min Rain = 0
KST3 121555Z 18002KT 25/12 A3009 RMK A01 T02460121  RH  046%=      5-min Rain = 0
KST3 121556Z 16003KT 25/12 A3009 RMK A01 T02460119  RH  045%=      5-min Rain = 0
KST3 121557Z 15002KT 24/12 A3009 RMK A01 T02440118  RH  045%=      5-min Rain = 0
KST3 121558Z 15004KT 24/12 A3009 RMK A01 T02440119  RH  046%=      5-min Rain = 0
KST3 121559Z 17003KT 24/12 A3009 RMK A01 T02420118  RH  046%=      5-min Rain = 0
KST3 121600Z 23002KT 24/12 A3009 RMK A01 T02410118  RH  046%=      5-min Rain = 0
KST3 121601Z 18002KT 24/12 A3009 RMK A01 T02430121  RH  046%=      5-min Rain = 0
KST3 121602Z 19001KT 25/12 A3009 RMK A01 T02460122  RH  046%=      5-min Rain = 0
KST3 121603Z 18005KT 25/12 A3009 RMK A01 T02480121  RH  045%=      5-min Rain = 0
KST3 121604Z 18004KT 25/12 A3009 RMK A01 T02490120  RH  045%=      5-min Rain = 0
KST3 121605Z 16002KT 25/12 A3009 RMK A01 T02470120  RH  045%=      5-min Rain = 0
KST3 121606Z 18003KT 25/12 A3009 RMK A01 T02470121  RH  045%=      5-min Rain = 0
KST3 121607Z 19004KT 25/12 A3009 RMK A01 T02480120  RH  045%=      5-min Rain = 0
KST3 121608Z 19002KT 25/12 A3009 RMK A01 T02480120  RH  045%=      5-min Rain = 0
KST3 121609Z 19004KT 25/12 A3009 RMK A01 T02480121  RH  045%=      5-min Rain = 0
KST3 121610Z 20003KT 25/12 A3009 RMK A01 T02490120  RH  045%=      5-min Rain = 0
KST3 121611Z 20002KT 25/12 A3009 RMK A01 T02490120  RH  045%=      5-min Rain = 0
KST3 121612Z 18003KT 25/12 A3008 RMK A01 T02480120  RH  045%=      5-min Rain = 0
KST3 121613Z 19003KT 25/12 A3008 RMK A01 T02490120  RH  045%=      5-min Rain = 0
KST3 121614Z 18002KT 25/12 A3008 RMK A01 T02490119  RH  044%=      5-min Rain = 0
KST3 121615Z 22001KT 25/12 A3008 RMK A01 T02490119  RH  044%=      5-min Rain = 0
KST3 121616Z 17002KT 25/12 A3008 RMK A01 T02500120  RH  044%=      5-min Rain = 0
KST3 121617Z 17004KT 25/12 A3008 RMK A01 T02540122  RH  044%=      5-min Rain = 0
KST3 121618Z 15003KT 26/12 A3008 RMK A01 T02550120  RH  043%=      5-min Rain = 0
KST3 121619Z 14003KT 26/12 A3008 RMK A01 T02550120  RH  043%=      5-min Rain = 0
KST3 121620Z 16002KT 26/12 A3008 RMK A01 T02560118  RH  042%=      5-min Rain = 0
KST3 121621Z 16000KT 26/12 A3008 RMK A01 T02570118  RH  042%=      5-min Rain = 0
KST3 121622Z 13001KT 26/12 A3008 RMK A01 T02570120  RH  042%=      5-min Rain = 0
KST3 121623Z 13003KT 26/12 A3008 RMK A01 T02580119  RH  042%=      5-min Rain = 0
KST3 121624Z 12003KT 26/12 A3008 RMK A01 T02580118  RH  042%=      5-min Rain = 0
KST3 121625Z 11002KT 26/12 A3008 RMK A01 T02580120  RH  042%=      5-min Rain = 0
KST3 121626Z 16002KT 26/12 A3008 RMK A01 T02590119  RH  042%=      5-min Rain = 0
KST3 121627Z 18001KT 26/12 A3008 RMK A01 T02610120  RH  042%=      5-min Rain = 0
KST3 121628Z 16000KT 26/12 A3008 RMK A01 T02640122  RH  041%=      5-min Rain = 0
KST3 121629Z 12003KT 27/12 A3008 RMK A01 T02680124  RH  041%=      5-min Rain = 0
KST3 121630Z 13004KT 27/12 A3008 RMK A01 T02700121  RH  040%=      5-min Rain = 0
KST3 121631Z 13004KT 27/12 A3008 RMK A01 T02670116  RH  039%=      5-min Rain = 0
KST3 121632Z 13002KT 26/11 A3008 RMK A01 T02640114  RH  039%=      5-min Rain = 0
KST3 121633Z 14001KT 26/11 A3008 RMK A01 T02630114  RH  039%=      5-min Rain = 0
KST3 121634Z 14000KT 26/12 A3008 RMK A01 T02630115  RH  040%=      5-min Rain = 0
KST3 121635Z 18002KT 26/12 A3008 RMK A01 T02640120  RH  041%=      5-min Rain = 0
KST3 121636Z 17002KT 27/12 A3008 RMK A01 T02650121  RH  041%=      5-min Rain = 0
KST3 121637Z 15003KT 27/12 A3008 RMK A01 T02680122  RH  040%=      5-min Rain = 0
KST3 121638Z 15005KT 27/12 A3008 RMK A01 T02690119  RH  039%=      5-min Rain = 0
KST3 121639Z 14004KT 27/12 A3008 RMK A01 T02680119  RH  039%=      5-min Rain = 0
KST3 121640Z 13004KT 27/12 A3008 RMK A01 T02670120  RH  040%=      5-min Rain = 0
KST3 121641Z 15002KT 27/12 A3008 RMK A01 T02670120  RH  040%=      5-min Rain = 0
KST3 121642Z 16000KT 27/12 A3008 RMK A01 T02670119  RH  040%=      5-min Rain = 0
KST3 121643Z 20001KT 27/12 A3008 RMK A01 T02660119  RH  040%=      5-min Rain = 0
KST3 121644Z 18004KT 27/12 A3008 RMK A01 T02650119  RH  040%=      5-min Rain = 0
KST3 121645Z 18006KT 27/12 A3008 RMK A01 T02650121  RH  041%=      5-min Rain = 0
KST3 121646Z 18005KT 27/12 A3008 RMK A01 T02670120  RH  040%=      5-min Rain = 0
KST3 121647Z 17005KT 27/12 A3008 RMK A01 T02700122  RH  040%=      5-min Rain = 0
KST3 121648Z 18002KT 27/12 A3008 RMK A01 T02710120  RH  039%=      5-min Rain = 0
KST3 121649Z 15003KT 27/12 A3008 RMK A01 T02720121  RH  039%=      5-min Rain = 0
KST3 121650Z 14002KT 27/12 A3008 RMK A01 T02730121  RH  039%=      5-min Rain = 0
KST3 121651Z 16005KT 28/12 A3008 RMK A01 T02750123  RH  039%=      5-min Rain = 0
KST3 121652Z 13004KT 28/12 A3008 RMK A01 T02760119  RH  038%=      5-min Rain = 0
KST3 121653Z 14005KT 27/12 A3008 RMK A01 T02740121  RH  039%=      5-min Rain = 0
KST3 121654Z 15004KT 27/12 A3008 RMK A01 T02730120  RH  039%=      5-min Rain = 0
KST3 121655Z 15001KT 27/12 A3007 RMK A01 T02720119  RH  038%=      5-min Rain = 0
KST3 121656Z 13001KT 27/12 A3007 RMK A01 T02730120  RH  039%=      5-min Rain = 0
KST3 121657Z 12005KT 27/12 A3007 RMK A01 T02740119  RH  038%=      5-min Rain = 0
KST3 121658Z 15004KT 28/12 A3007 RMK A01 T02750118  RH  038%=      5-min Rain = 0
KST3 121659Z 17005KT 28/12 A3007 RMK A01 T02750122  RH  039%=      5-min Rain = 0
KST3 121700Z 19006KT 28/12 A3007 RMK A01 T02770121  RH  038%=      5-min Rain = 0
KST3 121701Z 19006KT 28/12 A3007 RMK A01 T02780119  RH  037%=      5-min Rain = 0
KST3 121702Z 18005KT 28/12 A3007 RMK A01 T02760120  RH  038%=      5-min Rain = 0
KST3 121703Z 18003KT 28/12 A3007 RMK A01 T02760119  RH  038%=      5-min Rain = 0
KST3 121704Z 19004KT 28/12 A3007 RMK A01 T02750120  RH  038%=      5-min Rain = 0
KST3 121705Z 20004KT 28/12 A3007 RMK A01 T02780120  RH  037%=      5-min Rain = 0
KST3 121706Z 18003KT 28/12 A3007 RMK A01 T02790117  RH  037%=      5-min Rain = 0
KST3 121707Z 18004KT 28/12 A3007 RMK A01 T02780118  RH  037%=      5-min Rain = 0
KST3 121708Z 17003KT 28/12 A3007 RMK A01 T02830121  RH  037%=      5-min Rain = 0
KST3 121709Z 17005KT 29/12 A3007 RMK A01 T02850122  RH  036%=      5-min Rain = 0
KST3 121710Z 18003KT 28/12 A3007 RMK A01 T02840121  RH  036%=      5-min Rain = 0
KST3 121711Z 18003KT 28/12 A3007 RMK A01 T02830120  RH  036%=      5-min Rain = 0
KST3 121712Z 17003KT 28/12 A3007 RMK A01 T02830119  RH  036%=      5-min Rain = 0
KST3 121713Z 13004KT 29/12 A3007 RMK A01 T02860121  RH  036%=      5-min Rain = 0
KST3 121714Z 13004KT 29/12 A3007 RMK A01 T02860117  RH  035%=      5-min Rain = 0
KST3 121715Z 14003KT 28/12 A3007 RMK A01 T02830117  RH  036%=      5-min Rain = 0
KST3 121716Z 13003KT 28/12 A3007 RMK A01 T02820118  RH  036%=      5-min Rain = 0
KST3 121717Z 12003KT 28/12 A3007 RMK A01 T02810119  RH  037%=      5-min Rain = 0
KST3 121718Z 13004KT 28/12 A3007 RMK A01 T02810117  RH  036%=      5-min Rain = 0
KST3 121719Z 19004KT 28/12 A3007 RMK A01 T02800120  RH  037%=      5-min Rain = 0
KST3 121720Z 20004KT 28/12 A3007 RMK A01 T02810119  RH  037%=      5-min Rain = 0
KST3 121721Z 19002KT 28/12 A3007 RMK A01 T02810118  RH  037%=      5-min Rain = 0
KST3 121722Z 21001KT 28/12 A3007 RMK A01 T02810118  RH  036%=      5-min Rain = 0
KST3 121723Z 18001KT 28/12 A3007 RMK A01 T02800119  RH  037%=      5-min Rain = 0
KST3 121724Z 15003KT 28/12 A3007 RMK A01 T02840124  RH  037%=      5-min Rain = 0
KST3 121725Z 14006KT 29/12 A3007 RMK A01 T02900123  RH  036%=      5-min Rain = 0
KST3 121726Z 14005KT 29/12 A3007 RMK A01 T02890119  RH  035%=      5-min Rain = 0
KST3 121727Z 13005KT 29/12 A3007 RMK A01 T02850119  RH  036%=      5-min Rain = 0
KST3 121728Z 11004KT 29/12 A3007 RMK A01 T02850121  RH  036%=      5-min Rain = 0
KST3 121729Z 10002KT 29/12 A3007 RMK A01 T02860119  RH  036%=      5-min Rain = 0
KST3 121730Z 15001KT 29/12 A3007 RMK A01 T02860118  RH  035%=      5-min Rain = 0
KST3 121731Z 17004KT 29/12 A3007 RMK A01 T02870121  RH  036%=      5-min Rain = 0
KST3 121732Z 17004KT 29/12 A3006 RMK A01 T02900118  RH  035%=      5-min Rain = 0
KST3 121733Z 16006KT 29/12 A3006 RMK A01 T02910118  RH  034%=      5-min Rain = 0
KST3 121734Z 16006KT 29/12 A3006 RMK A01 T02910118  RH  034%=      5-min Rain = 0
KST3 121735Z 18005KT 29/12 A3006 RMK A01 T02910120  RH  035%=      5-min Rain = 0
KST3 121736Z 17005KT 29/12 A3006 RMK A01 T02910118  RH  034%=      5-min Rain = 0
KST3 121737Z 17004KT 29/12 A3006 RMK A01 T02900118  RH  035%=      5-min Rain = 0
KST3 121738Z 13002KT 29/12 A3006 RMK A01 T02880118  RH  035%=      5-min Rain = 0
KST3 121739Z 14005KT 29/12 A3006 RMK A01 T02900121  RH  035%=      5-min Rain = 0
KST3 121740Z 10005KT 29/12 A3006 RMK A01 T02920117  RH  034%=      5-min Rain = 0
KST3 121741Z 09004KT 29/12 A3006 RMK A01 T02920115  RH  033%=      5-min Rain = 0
KST3 121742Z 10004KT 29/12 A3006 RMK A01 T02920117  RH  034%=      5-min Rain = 0
KST3 121743Z 10005KT 29/12 A3006 RMK A01 T02920118  RH  034%=      5-min Rain = 0
KST3 121744Z 12004KT 29/12 A3006 RMK A01 T02910118  RH  034%=      5-min Rain = 0
KST3 121745Z 13003KT 29/12 A3006 RMK A01 T02900119  RH  035%=      5-min Rain = 0
KST3 121746Z 17005KT 29/12 A3006 RMK A01 T02900120  RH  035%=      5-min Rain = 0
KST3 121747Z 15004KT 29/12 A3006 RMK A01 T02910118  RH  034%=      5-min Rain = 0
KST3 121748Z 11005KT 29/12 A3006 RMK A01 T02910117  RH  034%=      5-min Rain = 0
KST3 121749Z 11004KT 29/12 A3006 RMK A01 T02900115  RH  034%=      5-min Rain = 0
KST3 121750Z 15007KT 29/12 A3006 RMK A01 T02910119  RH  035%=      5-min Rain = 0
KST3 121751Z 13007KT 29/12 A3006 RMK A01 T02930117  RH  034%=      5-min Rain = 0
KST3 121752Z 13004KT 29/12 A3006 RMK A01 T02920117  RH  034%=      5-min Rain = 0
KST3 121753Z 11005KT 29/12 A3006 RMK A01 T02900118  RH  034%=      5-min Rain = 0
KST3 121754Z 10007KT 29/12 A3006 RMK A01 T02920120  RH  034%=      5-min Rain = 0
KST3 121755Z 10003KT 29/12 A3006 RMK A01 T02930121  RH  035%=      5-min Rain = 0
KST3 121756Z 07002KT 29/12 A3006 RMK A01 T02920120  RH  034%=      5-min Rain = 0
KST3 121757Z 11003KT 29/12 A3006 RMK A01 T02930123  RH  035%=      5-min Rain = 0
KST3 121758Z 16007KT 30/12 A3006 RMK A01 T02960124  RH  035%=      5-min Rain = 0
KST3 121759Z 18005KT 30/12 A3006 RMK A01 T02980122  RH  034%=      5-min Rain = 0
KST3 121800Z 19007KT 30/12 A3006 RMK A01 T02980123  RH  034%=      5-min Rain = 0
KST3 121801Z 19005KT 30/12 A3006 RMK A01 T02970122  RH  034%=      5-min Rain = 0
KST3 121802Z 18007KT 30/12 A3006 RMK A01 T02980123  RH  034%=      5-min Rain = 0
KST3 121803Z 17006KT 30/12 A3006 RMK A01 T02980123  RH  034%=      5-min Rain = 0
KST3 121804Z 13005KT 30/13 A3006 RMK A01 T03000125  RH  034%=      5-min Rain = 0
KST3 121805Z 12004KT 30/12 A3005 RMK A01 T03010124  RH  034%=      5-min Rain = 0
KST3 121806Z 12002KT 30/12 A3005 RMK A01 T02960121  RH  034%=      5-min Rain = 0
KST3 121807Z 13002KT 29/12 A3005 RMK A01 T02910122  RH  035%=      5-min Rain = 0
KST3 121808Z 13004KT 29/12 A3005 RMK A01 T02910123  RH  035%=      5-min Rain = 0
KST3 121809Z 10002KT 29/12 A3005 RMK A01 T02930122  RH  035%=      5-min Rain = 0
KST3 121810Z 17007KT 30/12 A3005 RMK A01 T02950122  RH  034%=      5-min Rain = 0
KST3 121811Z 18006KT 30/12 A3005 RMK A01 T02980123  RH  034%=      5-min Rain = 0
KST3 121812Z 14006KT 30/12 A3005 RMK A01 T03020123  RH  033%=      5-min Rain = 0
KST3 121813Z 14008KT 30/12 A3005 RMK A01 T03030122  RH  033%=      5-min Rain = 0
KST3 121814Z 16007KT 30/12 A3005 RMK A01 T03020123  RH  033%=      5-min Rain = 0
KST3 121815Z 17006KT 30/12 A3005 RMK A01 T03010123  RH  033%=      5-min Rain = 0
KST3 121816Z 17005KT 30/12 A3005 RMK A01 T02990122  RH  033%=      5-min Rain = 0
KST3 121817Z 15002KT 30/12 A3005 RMK A01 T02970120  RH  034%=      5-min Rain = 0
KST3 121818Z 18002KT 30/12 A3005 RMK A01 T02950122  RH  034%=      5-min Rain = 0
KST3 121819Z 14003KT 30/12 A3005 RMK A01 T02950122  RH  034%=      5-min Rain = 0
KST3 121820Z 13005KT 30/13 A3005 RMK A01 T02970126  RH  035%=      5-min Rain = 0
KST3 121821Z 14006KT 30/13 A3005 RMK A01 T03010126  RH  034%=      5-min Rain = 0
KST3 121822Z 17005KT 30/13 A3004 RMK A01 T03020126  RH  034%=      5-min Rain = 0
KST3 121823Z 12007KT 30/13 A3004 RMK A01 T03030125  RH  034%=      5-min Rain = 0
KST3 121824Z 11007KT 30/12 A3004 RMK A01 T03040122  RH  033%=      5-min Rain = 0
KST3 121825Z 10006KT 30/12 A3004 RMK A01 T03040121  RH  033%=      5-min Rain = 0
KST3 121826Z 09004KT 30/12 A3004 RMK A01 T03030122  RH  033%=      5-min Rain = 0
KST3 121827Z 11007KT 30/12 A3004 RMK A01 T03010120  RH  033%=      5-min Rain = 0
KST3 121828Z 11006KT 30/12 A3004 RMK A01 T03010120  RH  033%=      5-min Rain = 0
KST3 121829Z 11008KT 30/12 A3004 RMK A01 T03030120  RH  033%=      5-min Rain = 0
KST3 121830Z 10005KT 30/12 A3004 RMK A01 T03030118  RH  032%=      5-min Rain = 0
KST3 121831Z 08004KT 30/12 A3004 RMK A01 T03000117  RH  032%=      5-min Rain = 0
KST3 121832Z 08003KT 30/12 A3004 RMK A01 T02990118  RH  033%=      5-min Rain = 0
KST3 121833Z 10004KT 30/12 A3004 RMK A01 T02990119  RH  033%=      5-min Rain = 0
KST3 121834Z 11007KT 30/12 A3004 RMK A01 T03000121  RH  033%=      5-min Rain = 0
KST3 121835Z 10009KT 30/12 A3004 RMK A01 T03030121  RH  033%=      5-min Rain = 0
KST3 121836Z 11006KT 31/12 A3004 RMK A01 T03050121  RH  032%=      5-min Rain = 0
KST3 121837Z 12007KT 31/12 A3004 RMK A01 T03090120  RH  031%=      5-min Rain = 0
KST3 121838Z 11004KT 31/12 A3004 RMK A01 T03090117  RH  031%=      5-min Rain = 0
KST3 121839Z 10005KT 31/12 A3004 RMK A01 T03070120  RH  032%=      5-min Rain = 0
KST3 121840Z 14003KT 31/12 A3004 RMK A01 T03060122  RH  032%=      5-min Rain = 0
KST3 121841Z 12005G11KT 31/12 A3004 RMK A01 T03080122  RH  032%=      5-min Rain = 0
KST3 121842Z 14008KT 31/13 A3004 RMK A01 T03090125  RH  032%=      5-min Rain = 0
KST3 121843Z 15005G11KT 31/13 A3004 RMK A01 T03100126  RH  032%=      5-min Rain = 0
KST3 121844Z 15008KT 31/12 A3004 RMK A01 T03120124  RH  032%=      5-min Rain = 0
KST3 121845Z 11009KT 31/12 A3004 RMK A01 T03140123  RH  031%=      5-min Rain = 0
KST3 121846Z 11006KT 31/12 A3004 RMK A01 T03120121  RH  031%=      5-min Rain = 0
KST3 121847Z 13007KT 31/12 A3004 RMK A01 T03090121  RH  032%=      5-min Rain = 0
KST3 121848Z 16010KT 31/12 A3004 RMK A01 T03090121  RH  032%=      5-min Rain = 0
KST3 121849Z 17008KT 31/12 A3004 RMK A01 T03110120  RH  031%=      5-min Rain = 0
KST3 121850Z 17008KT 31/12 A3003 RMK A01 T03100119  RH  031%=      5-min Rain = 0
KST3 121851Z 16006KT 31/12 A3003 RMK A01 T03090117  RH  031%=      5-min Rain = 0
KST3 121852Z 16005G11KT 31/12 A3003 RMK A01 T03080118  RH  031%=      5-min Rain = 0
KST3 121853Z 17009KT 31/12 A3003 RMK A01 T03090119  RH  031%=      5-min Rain = 0
KST3 121854Z 16011KT 31/12 A3003 RMK A01 T03090119  RH  031%=      5-min Rain = 0
KST3 121855Z 14005KT 31/12 A3003 RMK A01 T03100116  RH  030%=      5-min Rain = 0
KST3 121856Z 16009KT 31/12 A3003 RMK A01 T03090118  RH  031%=      5-min Rain = 0
KST3 121857Z 18007KT 31/12 A3003 RMK A01 T03090119  RH  031%=      5-min Rain = 0
KST3 121858Z 17007KT 31/12 A3003 RMK A01 T03100118  RH  031%=      5-min Rain = 0
KST3 121859Z 16005KT 31/12 A3003 RMK A01 T03110119  RH  031%=      5-min Rain = 0
KST3 121900Z 12006KT 31/12 A3003 RMK A01 T03120119  RH  031%=      5-min Rain = 0
KST3 121901Z 14006KT 31/12 A3003 RMK A01 T03130120  RH  031%=      5-min Rain = 0
KST3 121902Z 16010KT 31/12 A3003 RMK A01 T03140118  RH  030%=      5-min Rain = 0
KST3 121903Z 16008KT 32/12 A3003 RMK A01 T03150117  RH  030%=      5-min Rain = 0
KST3 121904Z 17007KT 32/12 A3003 RMK A01 T03170116  RH  029%=      5-min Rain = 0
KST3 121905Z 17008G13KT 32/12 A3003 RMK A01 T03150115  RH  029%=      5-min Rain = 0
KST3 121906Z 16009KT 31/12 A3003 RMK A01 T03140116  RH  030%=      5-min Rain = 0
KST3 121907Z 16006KT 31/12 A3003 RMK A01 T03140116  RH  030%=      5-min Rain = 0
KST3 121908Z 18006KT 32/12 A3003 RMK A01 T03160116  RH  029%=      5-min Rain = 0
KST3 121909Z 19004KT 32/11 A3002 RMK A01 T03150111  RH  029%=      5-min Rain = 0
KST3 121910Z 17007KT 31/11 A3002 RMK A01 T03120111  RH  029%=      5-min Rain = 0
KST3 121911Z 17004KT 31/11 A3002 RMK A01 T03120109  RH  029%=      5-min Rain = 0
KST3 121912Z 15006KT 31/11 A3002 RMK A01 T03120110  RH  029%=      5-min Rain = 0
KST3 121913Z 14009KT 31/11 A3002 RMK A01 T03110113  RH  030%=      5-min Rain = 0
KST3 121914Z 14008KT 31/12 A3002 RMK A01 T03120116  RH  030%=      5-min Rain = 0
KST3 121915Z 14005KT 31/12 A3002 RMK A01 T03110116  RH  030%=      5-min Rain = 0
KST3 121916Z 15008KT 31/12 A3002 RMK A01 T03100115  RH  030%=      5-min Rain = 0
KST3 121917Z 12006KT 31/11 A3002 RMK A01 T03090113  RH  030%=      5-min Rain = 0
KST3 121918Z 12004KT 31/11 A3002 RMK A01 T03090114  RH  030%=      5-min Rain = 0
KST3 121919Z 13003KT 31/12 A3002 RMK A01 T03090115  RH  030%=      5-min Rain = 0
KST3 121920Z 12005KT 31/12 A3002 RMK A01 T03090115  RH  030%=      5-min Rain = 0
KST3 121921Z 11007KT 31/12 A3002 RMK A01 T03100116  RH  030%=      5-min Rain = 0
KST3 121922Z 12008KT 31/12 A3002 RMK A01 T03110115  RH  030%=      5-min Rain = 0
KST3 121923Z 12006KT 31/11 A3002 RMK A01 T03100114  RH  030%=      5-min Rain = 0
KST3 121924Z 11006KT 31/11 A3002 RMK A01 T03110112  RH  029%=      5-min Rain = 0
KST3 121925Z 09006KT 31/11 A3002 RMK A01 T03120112  RH  029%=      5-min Rain = 0
KST3 121926Z 07006KT 31/11 A3002 RMK A01 T03110113  RH  030%=      5-min Rain = 0
KST3 121927Z 07004KT 31/11 A3002 RMK A01 T03100112  RH  030%=      5-min Rain = 0
KST3 121928Z 05005KT 31/11 A3002 RMK A01 T03100112  RH  030%=      5-min Rain = 0
KST3 121929Z 09007KT 31/12 A3002 RMK A01 T03110115  RH  030%=      5-min Rain = 0
KST3 121930Z 11008KT 31/12 A3002 RMK A01 T03140116  RH  030%=      5-min Rain = 0
KST3 121931Z 15005KT 32/12 A3001 RMK A01 T03180116  RH  029%=      5-min Rain = 0
KST3 121932Z 15005KT 32/11 A3001 RMK A01 T03210114  RH  028%=      5-min Rain = 0
KST3 121933Z 14006KT 32/12 A3001 RMK A01 T03200116  RH  029%=      5-min Rain = 0
KST3 121934Z 14005KT 32/11 A3001 RMK A01 T03180114  RH  029%=      5-min Rain = 0
KST3 121935Z 13005KT 32/12 A3001 RMK A01 T03170116  RH  029%=      5-min Rain = 0
KST3 121936Z 14010KT 32/11 A3001 RMK A01 T03190114  RH  029%=      5-min Rain = 0
KST3 121937Z 16011KT 32/11 A3001 RMK A01 T03200113  RH  028%=      5-min Rain = 0
KST3 121938Z 15010KT 32/11 A3001 RMK A01 T03210112  RH  028%=      5-min Rain = 0
KST3 121939Z 15011KT 32/11 A3001 RMK A01 T03190113  RH  028%=      5-min Rain = 0
KST3 121940Z 17009KT 32/11 A3001 RMK A01 T03180113  RH  028%=      5-min Rain = 0
KST3 121941Z 19009KT 32/11 A3001 RMK A01 T03170114  RH  029%=      5-min Rain = 0
KST3 121942Z 16007KT 32/12 A3001 RMK A01 T03180115  RH  029%=      5-min Rain = 0
KST3 121943Z 16007KT 32/12 A3001 RMK A01 T03210115  RH  028%=      5-min Rain = 0
KST3 121944Z 14005KT 32/11 A3001 RMK A01 T03200114  RH  028%=      5-min Rain = 0
KST3 121945Z 11002KT 32/11 A3001 RMK A01 T03200113  RH  028%=      5-min Rain = 0
KST3 121946Z 14002KT 32/11 A3001 RMK A01 T03180113  RH  028%=      5-min Rain = 0
KST3 121947Z 13004KT 32/12 A3001 RMK A01 T03180115  RH  029%=      5-min Rain = 0
KST3 121948Z 12004KT 32/12 A3001 RMK A01 T03220119  RH  029%=      5-min Rain = 0
KST3 121949Z 16006KT 32/12 A3001 RMK A01 T03230116  RH  028%=      5-min Rain = 0
KST3 121950Z 15006KT 32/11 A30 RMK A01 T03210114  RH  028%=      5-min Rain = 0
KST3 121951Z 16005KT 32/12 A30 RMK A01 T03200117  RH  029%=      5-min Rain = 0
KST3 121952Z 13003KT 32/12 A30 RMK A01 T03210118  RH  029%=      5-min Rain = 0
KST3 121953Z 10004KT 32/12 A30 RMK A01 T03220118  RH  029%=      5-min Rain = 0
KST3 121954Z 15005KT 32/12 A30 RMK A01 T03240119  RH  029%=      5-min Rain = 0
KST3 121955Z 15004KT 32/12 A30 RMK A01 T03240116  RH  028%=      5-min Rain = 0
KST3 121956Z 14004KT 32/12 A30 RMK A01 T03230119  RH  029%=      5-min Rain = 0
KST3 121957Z 13009KT 33/12 A30 RMK A01 T03260117  RH  028%=      5-min Rain = 0
KST3 121958Z 14007KT 33/12 A30 RMK A01 T03250115  RH  028%=      5-min Rain = 0
KST3 121959Z 14007KT 32/12 A30 RMK A01 T03210115  RH  028%=      5-min Rain = 0
KST3 122000Z 12008KT 32/11 A30 RMK A01 T03210114  RH  028%=      5-min Rain = 0
KST3 122001Z 11006KT 32/11 A30 RMK A01 T03200112  RH  028%=      5-min Rain = 0
KST3 122002Z 13005KT 32/12 A30 RMK A01 T03190115  RH  029%=      5-min Rain = 0
KST3 122003Z 16005KT 32/12 A30 RMK A01 T03210116  RH  029%=      5-min Rain = 0
KST3 122004Z 19005KT 32/11 A30 RMK A01 T03220114  RH  028%=      5-min Rain = 0
KST3 122005Z 26003KT 32/11 A30 RMK A01 T03220113  RH  028%=      5-min Rain = 0
KST3 122006Z 11003KT 32/12 A30 RMK A01 T03210115  RH  028%=      5-min Rain = 0
KST3 122007Z 13007KT 32/12 A30 RMK A01 T03240116  RH  028%=      5-min Rain = 0
KST3 122008Z 13007KT 33/12 A30 RMK A01 T03270116  RH  028%=      5-min Rain = 0
KST3 122009Z 12006KT 33/11 A30 RMK A01 T03250112  RH  027%=      5-min Rain = 0
KST3 122010Z 11005KT 32/11 A30 RMK A01 T03200111  RH  028%=      5-min Rain = 0
KST3 122011Z 13004KT 32/11 A30 RMK A01 T03180112  RH  028%=      5-min Rain = 0
KST3 122012Z 22001KT 32/11 A2999 RMK A01 T03170109  RH  028%=      5-min Rain = 0
KST3 122013Z 23001KT 32/11 A2999 RMK A01 T03170111  RH  028%=      5-min Rain = 0
KST3 122014Z 13001KT 32/11 A2999 RMK A01 T03180114  RH  029%=      5-min Rain = 0
KST3 122015Z 11005KT 32/12 A2999 RMK A01 T03230118  RH  028%=      5-min Rain = 0
KST3 122016Z 15005KT 33/12 A2999 RMK A01 T03280117  RH  028%=      5-min Rain = 0
KST3 122017Z 13006KT 33/12 A2999 RMK A01 T03290116  RH  027%=      5-min Rain = 0
KST3 122018Z 10008KT 33/11 A2999 RMK A01 T03300114  RH  027%=      5-min Rain = 0
KST3 122019Z 10005KT 33/11 A2999 RMK A01 T03270114  RH  027%=      5-min Rain = 0
KST3 122020Z 11005KT 33/12 A2999 RMK A01 T03280115  RH  027%=      5-min Rain = 0
KST3 122021Z 10006KT 33/11 A2999 RMK A01 T03290114  RH  027%=      5-min Rain = 0
KST3 122022Z 10003KT 33/11 A2999 RMK A01 T03270112  RH  027%=      5-min Rain = 0
KST3 122023Z 14006G11KT 33/11 A2999 RMK A01 T03250114  RH  028%=      5-min Rain = 0
KST3 122024Z 12009KT 33/11 A2999 RMK A01 T03250114  RH  027%=      5-min Rain = 0
KST3 122025Z 11010KT 33/12 A2999 RMK A01 T03260115  RH  028%=      5-min Rain = 0
KST3 122026Z 12006KT 33/11 A2999 RMK A01 T03260113  RH  027%=      5-min Rain = 0
KST3 122027Z 11008KT 33/12 A2999 RMK A01 T03260115  RH  028%=      5-min Rain = 0
KST3 122028Z 12009KT 33/11 A2998 RMK A01 T03270114  RH  027%=      5-min Rain = 0
KST3 122029Z 14010KT 33/12 A2998 RMK A01 T03280115  RH  027%=      5-min Rain = 0
KST3 122030Z 14005KT 33/11 A2998 RMK A01 T03270114  RH  027%=      5-min Rain = 0
KST3 122031Z 11005KT 33/12 A2998 RMK A01 T03280115  RH  027%=      5-min Rain = 0
KST3 122032Z 12007KT 33/11 A2998 RMK A01 T03290113  RH  027%=      5-min Rain = 0
KST3 122033Z 13008KT 33/11 A2998 RMK A01 T03260112  RH  027%=      5-min Rain = 0
KST3 122034Z 11008KT 33/11 A2998 RMK A01 T03260113  RH  027%=      5-min Rain = 0
KST3 122035Z 10006KT 33/11 A2998 RMK A01 T03280111  RH  027%=      5-min Rain = 0
KST3 122036Z 11009KT 33/11 A2998 RMK A01 T03250111  RH  027%=      5-min Rain = 0
KST3 122037Z 12009KT 33/11 A2998 RMK A01 T03260110  RH  027%=      5-min Rain = 0
KST3 122038Z 11006KT 33/11 A2998 RMK A01 T03250109  RH  027%=      5-min Rain = 0
KST3 122039Z 11003KT 32/11 A2998 RMK A01 T03230110  RH  027%=      5-min Rain = 0
KST3 122040Z 09003KT 32/11 A2998 RMK A01 T03230110  RH  027%=      5-min Rain = 0
KST3 122041Z 14004KT 32/11 A2998 RMK A01 T03240110  RH  027%=      5-min Rain = 0
KST3 122042Z 21003KT 33/11 A2998 RMK A01 T03250109  RH  027%=      5-min Rain = 0
KST3 122043Z 16005KT 33/11 A2998 RMK A01 T03260110  RH  027%=      5-min Rain = 0
KST3 122044Z 15008KT 33/11 A2998 RMK A01 T03280112  RH  027%=      5-min Rain = 0
KST3 122045Z 13007KT 33/11 A2998 RMK A01 T03280110  RH  026%=      5-min Rain = 0
KST3 122046Z 11008KT 33/11 A2998 RMK A01 T03290111  RH  026%=      5-min Rain = 0
KST3 122047Z 10007KT 33/11 A2998 RMK A01 T03310110  RH  026%=      5-min Rain = 0
KST3 122048Z 11008KT 33/11 A2998 RMK A01 T03310109  RH  026%=      5-min Rain = 0
KST3 122049Z 10008KT 33/11 A2998 RMK A01 T03300108  RH  026%=      5-min Rain = 0
KST3 122050Z 10005KT 33/10 A2998 RMK A01 T03250104  RH  026%=      5-min Rain = 0
KST3 122051Z 06003KT 32/10 A2998 RMK A01 T03220104  RH  026%=      5-min Rain = 0
KST3 122052Z 04002KT 32/10 A2998 RMK A01 T03220103  RH  026%=      5-min Rain = 0
KST3 122053Z 04002KT 32/10 A2997 RMK A01 T03220102  RH  026%=      5-min Rain = 0
KST3 122054Z 09004KT 32/10 A2997 RMK A01 T03210103  RH  026%=      5-min Rain = 0
KST3 122055Z 10009KT 32/11 A2997 RMK A01 T03220106  RH  026%=      5-min Rain = 0
KST3 122056Z 11009KT 32/11 A2997 RMK A01 T03230106  RH  026%=      5-min Rain = 0
KST3 122057Z 12006KT 32/11 A2997 RMK A01 T03240107  RH  026%=      5-min Rain = 0
KST3 122058Z 13007KT 33/11 A2997 RMK A01 T03260108  RH  026%=      5-min Rain = 0
KST3 122059Z 12010KT 33/11 A2997 RMK A01 T03280108  RH  026%=      5-min Rain = 0
KST3 122100Z 12008KT 33/11 A2997 RMK A01 T03280107  RH  026%=      5-min Rain = 0
KST3 122101Z 10009KT 33/11 A2997 RMK A01 T03260106  RH  026%=      5-min Rain = 0
KST3 122102Z 12007KT 33/11 A2997 RMK A01 T03250107  RH  026%=      5-min Rain = 0
KST3 122103Z 13008KT 33/11 A2997 RMK A01 T03260107  RH  026%=      5-min Rain = 0
KST3 122104Z 14007KT 33/11 A2997 RMK A01 T03270107  RH  026%=      5-min Rain = 0
KST3 122105Z 12007KT 33/11 A2997 RMK A01 T03260106  RH  026%=      5-min Rain = 0
KST3 122106Z 13004KT 33/11 A2997 RMK A01 T03250107  RH  026%=      5-min Rain = 0
KST3 122107Z 12002KT 33/11 A2997 RMK A01 T03250106  RH  026%=      5-min Rain = 0
KST3 122108Z 14005KT 33/11 A2997 RMK A01 T03250107  RH  026%=      5-min Rain = 0
KST3 122109Z 13005KT 33/11 A2997 RMK A01 T03260105  RH  026%=      5-min Rain = 0
KST3 122110Z 16004KT 33/11 A2997 RMK A01 T03250105  RH  026%=      5-min Rain = 0
KST3 122111Z 17003KT 33/10 A2997 RMK A01 T03250104  RH  026%=      5-min Rain = 0
KST3 122112Z 20003KT 33/11 A2997 RMK A01 T03260106  RH  026%=      5-min Rain = 0
KST3 122113Z 24001KT 33/10 A2997 RMK A01 T03280103  RH  025%=      5-min Rain = 0
KST3 122114Z 20002KT 33/10 A2997 RMK A01 T03280104  RH  025%=      5-min Rain = 0
KST3 122115Z 16006KT 33/11 A2997 RMK A01 T03300105  RH  025%=      5-min Rain = 0
KST3 122116Z 14005KT 33/11 A2997 RMK A01 T03310105  RH  025%=      5-min Rain = 0
KST3 122117Z 12004KT 33/11 A2997 RMK A01 T03310105  RH  025%=      5-min Rain = 0
KST3 122118Z 14005KT 33/11 A2997 RMK A01 T03300105  RH  025%=      5-min Rain = 0
KST3 122119Z 15005KT 33/10 A2997 RMK A01 T03290102  RH  025%=      5-min Rain = 0
KST3 122120Z 15004KT 33/10 A2997 RMK A01 T03290103  RH  025%=      5-min Rain = 0
KST3 122121Z 14002KT 33/10 A2997 RMK A01 T03280102  RH  025%=      5-min Rain = 0
KST3 122122Z 18004KT 33/10 A2996 RMK A01 T03270102  RH  025%=      5-min Rain = 0
KST3 122123Z 20004KT 33/10 A2996 RMK A01 T03280102  RH  025%=      5-min Rain = 0
KST3 122124Z 17005KT 33/10 A2996 RMK A01 T03290102  RH  025%=      5-min Rain = 0
KST3 122125Z 14002KT 33/10 A2996 RMK A01 T03280104  RH  025%=      5-min Rain = 0
KST3 122126Z 12003KT 33/10 A2996 RMK A01 T03280103  RH  025%=      5-min Rain = 0
KST3 122127Z 13002KT 33/10 A2996 RMK A01 T03280101  RH  025%=      5-min Rain = 0
KST3 122128Z 13003KT 33/10 A2996 RMK A01 T03280104  RH  025%=      5-min Rain = 0
KST3 122129Z 11005KT 33/11 A2996 RMK A01 T03290107  RH  026%=      5-min Rain = 0
KST3 122130Z 11004KT 33/11 A2996 RMK A01 T03300113  RH  026%=      5-min Rain = 0
KST3 122131Z 09005KT 33/11 A2996 RMK A01 T03300113  RH  027%=      5-min Rain = 0
KST3 122132Z 11006KT 33/11 A2996 RMK A01 T03310114  RH  027%=      5-min Rain = 0
KST3 122133Z 12005KT 33/11 A2996 RMK A01 T03330111  RH  026%=      5-min Rain = 0
KST3 122134Z 07007KT 33/11 A2996 RMK A01 T03330114  RH  026%=      5-min Rain = 0
KST3 122135Z 06008KT 33/11 A2996 RMK A01 T03310114  RH  027%=      5-min Rain = 0
KST3 122136Z 07006KT 33/11 A2996 RMK A01 T03290114  RH  027%=      5-min Rain = 0
KST3 122137Z 09005KT 33/11 A2996 RMK A01 T03270114  RH  027%=      5-min Rain = 0
KST3 122138Z 05006KT 33/12 A2996 RMK A01 T03260115  RH  028%=      5-min Rain = 0
KST3 122139Z 09006KT 33/12 A2996 RMK A01 T03290117  RH  027%=      5-min Rain = 0
KST3 122140Z 09009G16KT 33/12 A2996 RMK A01 T03320115  RH  027%=      5-min Rain = 0
KST3 122141Z 11004KT 33/11 A2996 RMK A01 T03320113  RH  026%=      5-min Rain = 0
KST3 122142Z 07005KT 33/11 A2996 RMK A01 T03290114  RH  027%=      5-min Rain = 0
KST3 122143Z 12008G13KT 33/11 A2996 RMK A01 T03290114  RH  027%=      5-min Rain = 0
KST3 122144Z 15004KT 33/11 A2996 RMK A01 T03300112  RH  026%=      5-min Rain = 0
KST3 122145Z 15006KT 33/11 A2996 RMK A01 T03310111  RH  026%=      5-min Rain = 0
KST3 122146Z 11009KT 33/11 A2996 RMK A01 T03320114  RH  026%=      5-min Rain = 0
KST3 122147Z 13007KT 33/11 A2996 RMK A01 T03340114  RH  026%=      5-min Rain = 0
KST3 122148Z 11008KT 33/12 A2996 RMK A01 T03340115  RH  026%=      5-min Rain = 0
KST3 122149Z 11006KT 33/12 A2996 RMK A01 T03330115  RH  026%=      5-min Rain = 0
KST3 122150Z 12005KT 33/11 A2996 RMK A01 T03340114  RH  026%=      5-min Rain = 0
KST3 122151Z 11005KT 33/11 A2996 RMK A01 T03320112  RH  026%=      5-min Rain = 0
KST3 122152Z 10005KT 33/11 A2996 RMK A01 T03300114  RH  027%=      5-min Rain = 0
KST3 122153Z 08005KT 33/11 A2996 RMK A01 T03300113  RH  027%=      5-min Rain = 0
KST3 122154Z 06003KT 33/11 A2996 RMK A01 T03280113  RH  027%=      5-min Rain = 0
KST3 122155Z 05003KT 33/11 A2996 RMK A01 T03270113  RH  027%=      5-min Rain = 0
KST3 122156Z 06005KT 33/11 A2996 RMK A01 T03260111  RH  027%=      5-min Rain = 0
KST3 122157Z 14004KT 33/11 A2995 RMK A01 T03250113  RH  027%=      5-min Rain = 0
KST3 122158Z 19001KT 33/11 A2995 RMK A01 T03260114  RH  027%=      5-min Rain = 0
KST3 122159Z 08003KT 33/11 A2995 RMK A01 T03280113  RH  027%=      5-min Rain = 0
KST3 122200Z 08006KT 33/11 A2995 RMK A01 T03290114  RH  027%=      5-min Rain = 0
KST3 122201Z 08008KT 33/11 A2995 RMK A01 T03290112  RH  027%=      5-min Rain = 0
KST3 122202Z 07007KT 33/11 A2995 RMK A01 T03290111  RH  026%=      5-min Rain = 0
KST3 122203Z 08007KT 33/11 A2995 RMK A01 T03290111  RH  026%=      5-min Rain = 0
KST3 122204Z 10010KT 33/11 A2995 RMK A01 T03280113  RH  027%=      5-min Rain = 0
KST3 122205Z 09010KT 33/11 A2995 RMK A01 T03280112  RH  027%=      5-min Rain = 0
KST3 122206Z 09005KT 33/11 A2995 RMK A01 T03280113  RH  027%=      5-min Rain = 0
KST3 122207Z 12007KT 33/11 A2995 RMK A01 T03270114  RH  027%=      5-min Rain = 0
KST3 122208Z 12008KT 33/11 A2995 RMK A01 T03260113  RH  027%=      5-min Rain = 0
KST3 122209Z 11008KT 33/11 A2995 RMK A01 T03270112  RH  027%=      5-min Rain = 0
KST3 122210Z 13006KT 33/11 A2995 RMK A01 T03260113  RH  027%=      5-min Rain = 0
KST3 122211Z 15005KT 33/11 A2995 RMK A01 T03270112  RH  027%=      5-min Rain = 0
KST3 122212Z 11006G12KT 33/11 A2995 RMK A01 T03270113  RH  027%=      5-min Rain = 0
KST3 122213Z 11008KT 33/11 A2995 RMK A01 T03280113  RH  027%=      5-min Rain = 0
KST3 122214Z 10010KT 33/11 A2995 RMK A01 T03290110  RH  026%=      5-min Rain = 0
KST3 122215Z 08009KT 33/11 A2995 RMK A01 T03280111  RH  027%=      5-min Rain = 0
KST3 122216Z 08009KT 33/11 A2995 RMK A01 T03270110  RH  026%=      5-min Rain = 0
KST3 122217Z 10009KT 33/11 A2995 RMK A01 T03250109  RH  027%=      5-min Rain = 0
KST3 122218Z 09007KT 33/11 A2995 RMK A01 T03250110  RH  027%=      5-min Rain = 0
KST3 122219Z 09007KT 33/11 A2995 RMK A01 T03260110  RH  027%=      5-min Rain = 0
KST3 122220Z 09008KT 33/11 A2995 RMK A01 T03270109  RH  026%=      5-min Rain = 0
KST3 122221Z 09008KT 33/11 A2995 RMK A01 T03280108  RH  026%=      5-min Rain = 0
KST3 122222Z 08007KT 33/11 A2995 RMK A01 T03270109  RH  026%=      5-min Rain = 0
KST3 122223Z 08006KT 33/11 A2995 RMK A01 T03270109  RH  026%=      5-min Rain = 0
KST3 122224Z 08004KT 33/11 A2995 RMK A01 T03280110  RH  026%=      5-min Rain = 0
KST3 122225Z 08004KT 33/11 A2995 RMK A01 T03260108  RH  026%=      5-min Rain = 0
KST3 122226Z 10003KT 33/11 A2995 RMK A01 T03260112  RH  027%=      5-min Rain = 0
KST3 122227Z 11007KT 33/11 A2995 RMK A01 T03260112  RH  027%=      5-min Rain = 0
KST3 122228Z 11006KT 33/11 A2995 RMK A01 T03270113  RH  027%=      5-min Rain = 0
KST3 122229Z 10006KT 33/11 A2995 RMK A01 T03250114  RH  027%=      5-min Rain = 0
KST3 122230Z 08006KT 32/11 A2995 RMK A01 T03240114  RH  028%=      5-min Rain = 0
KST3 122231Z 07008KT 32/12 A2995 RMK A01 T03230115  RH  028%=      5-min Rain = 0
KST3 122232Z 08006KT 32/12 A2995 RMK A01 T03230117  RH  028%=      5-min Rain = 0
KST3 122233Z 07008KT 33/12 A2995 RMK A01 T03260119  RH  028%=      5-min Rain = 0
KST3 122234Z 09008KT 33/12 A2995 RMK A01 T03280116  RH  028%=      5-min Rain = 0
KST3 122235Z 11009KT 33/11 A2995 RMK A01 T03280112  RH  027%=      5-min Rain = 0
KST3 122236Z 11012KT 33/11 A2995 RMK A01 T03290111  RH  026%=      5-min Rain = 0
KST3 122237Z 09011KT 33/11 A2995 RMK A01 T03270111  RH  027%=      5-min Rain = 0
KST3 122238Z 09012KT 33/12 A2995 RMK A01 T03250115  RH  028%=      5-min Rain = 0
KST3 122239Z 08012KT 32/12 A2995 RMK A01 T03230116  RH  028%=      5-min Rain = 0
KST3 122240Z 06012KT 32/12 A2995 RMK A01 T03220116  RH  028%=      5-min Rain = 0
KST3 122241Z 07012KT 32/12 A2995 RMK A01 T03210116  RH  028%=      5-min Rain = 0
KST3 122242Z 06010KT 32/12 A2995 RMK A01 T03210117  RH  029%=      5-min Rain = 0
KST3 122243Z 05010KT 32/12 A2995 RMK A01 T03220116  RH  028%=      5-min Rain = 0
KST3 122244Z 04011KT 32/12 A2995 RMK A01 T03200116  RH  029%=      5-min Rain = 0
KST3 122245Z 05010KT 32/12 A2995 RMK A01 T03190116  RH  029%=      5-min Rain = 0
KST3 122246Z 07009G14KT 32/12 A2995 RMK A01 T03200117  RH  029%=      5-min Rain = 0
KST3 122247Z 07012KT 32/12 A2995 RMK A01 T03210117  RH  029%=      5-min Rain = 0
KST3 122248Z 07011KT 32/12 A2995 RMK A01 T03220117  RH  029%=      5-min Rain = 0
KST3 122249Z 06012KT 32/12 A2995 RMK A01 T03230116  RH  028%=      5-min Rain = 0
KST3 122250Z 06011KT 32/12 A2995 RMK A01 T03220116  RH  028%=      5-min Rain = 0
KST3 122251Z 08009KT 32/12 A2995 RMK A01 T03210116  RH  029%=      5-min Rain = 0
KST3 122252Z 08010KT 32/12 A2995 RMK A01 T03210118  RH  029%=      5-min Rain = 0
KST3 122253Z 08009KT 33/12 A2995 RMK A01 T03250120  RH  029%=      5-min Rain = 0
KST3 122254Z 07010KT 33/12 A2995 RMK A01 T03270118  RH  028%=      5-min Rain = 0
KST3 122255Z 06011KT 33/12 A2995 RMK A01 T03250116  RH  028%=      5-min Rain = 0
KST3 122256Z 06013KT 32/12 A2995 RMK A01 T03230115  RH  028%=      5-min Rain = 0
KST3 122257Z 06013KT 32/11 A2995 RMK A01 T03200114  RH  028%=      5-min Rain = 0
KST3 122258Z 07010KT 32/11 A2995 RMK A01 T03180113  RH  029%=      5-min Rain = 0
KST3 122259Z 07009KT 32/11 A2995 RMK A01 T03160114  RH  029%=      5-min Rain = 0
KST3 122300Z 08007KT 32/11 A2995 RMK A01 T03160114  RH  029%=      5-min Rain = 0
KST3 122301Z 09007KT 32/12 A2995 RMK A01 T03170115  RH  029%=      5-min Rain = 0
KST3 122302Z 11010KT 32/12 A2995 RMK A01 T03180116  RH  029%=      5-min Rain = 0
KST3 122303Z 10010KT 32/12 A2995 RMK A01 T03190117  RH  029%=      5-min Rain = 0
KST3 122304Z 11010KT 32/12 A2995 RMK A01 T03200116  RH  029%=      5-min Rain = 0
KST3 122305Z 11008KT 32/12 A2995 RMK A01 T03210116  RH  029%=      5-min Rain = 0
KST3 122306Z 10009G14KT 32/12 A2995 RMK A01 T03200117  RH  029%=      5-min Rain = 0
KST3 122307Z 10011KT 32/12 A2995 RMK A01 T03200116  RH  029%=      5-min Rain = 0
KST3 122308Z 08010KT 32/12 A2995 RMK A01 T03200116  RH  029%=      5-min Rain = 0
KST3 122309Z 08009G15KT 32/11 A2995 RMK A01 T03190114  RH  029%=      5-min Rain = 0
KST3 122310Z 08011KT 32/12 A2995 RMK A01 T03170116  RH  029%=      5-min Rain = 0
KST3 122311Z 08011KT 32/12 A2995 RMK A01 T03170115  RH  029%=      5-min Rain = 0
KST3 122312Z 08009KT 32/12 A2995 RMK A01 T03170115  RH  029%=      5-min Rain = 0
KST3 122313Z 08011KT 32/12 A2995 RMK A01 T03160116  RH  029%=      5-min Rain = 0
KST3 122314Z 08010KT 32/12 A2995 RMK A01 T03160115  RH  029%=      5-min Rain = 0
KST3 122315Z 09009KT 32/12 A2995 RMK A01 T03160115  RH  029%=      5-min Rain = 0
KST3 122316Z 09012KT 32/12 A2995 RMK A01 T03160116  RH  029%=      5-min Rain = 0
KST3 122317Z 08011KT 32/12 A2995 RMK A01 T03170115  RH  029%=      5-min Rain = 0
KST3 122318Z 09012KT 32/12 A2995 RMK A01 T03160115  RH  029%=      5-min Rain = 0
KST3 122319Z 09011KT 32/12 A2995 RMK A01 T03150115  RH  029%=      5-min Rain = 0
KST3 122320Z 09009KT 32/12 A2995 RMK A01 T03150115  RH  029%=      5-min Rain = 0
KST3 122321Z 08010KT 31/12 A2995 RMK A01 T03140115  RH  030%=      5-min Rain = 0
KST3 122322Z 07011KT 31/12 A2995 RMK A01 T03140115  RH  030%=      5-min Rain = 0
KST3 122323Z 07012KT 31/12 A2995 RMK A01 T03130115  RH  030%=      5-min Rain = 0
KST3 122324Z 08011KT 31/11 A2995 RMK A01 T03120114  RH  030%=      5-min Rain = 0
KST3 122325Z 07012KT 31/11 A2995 RMK A01 T03120114  RH  030%=      5-min Rain = 0
KST3 122326Z 08012G17KT 31/11 A2995 RMK A01 T03110114  RH  030%=      5-min Rain = 0
KST3 122327Z 09010KT 31/12 A2995 RMK A01 T03120116  RH  030%=      5-min Rain = 0
KST3 122328Z 09012KT 31/12 A2995 RMK A01 T03130115  RH  030%=      5-min Rain = 0
KST3 122329Z 08011KT 31/12 A2995 RMK A01 T03130115  RH  030%=      5-min Rain = 0
KST3 122330Z 09011KT 31/12 A2995 RMK A01 T03120115  RH  030%=      5-min Rain = 0
KST3 122331Z 08010KT 31/12 A2995 RMK A01 T03110115  RH  030%=      5-min Rain = 0
KST3 122332Z 08010KT 31/12 A2995 RMK A01 T03110115  RH  030%=      5-min Rain = 0
KST3 122333Z 08011KT 31/12 A2995 RMK A01 T03110115  RH  030%=      5-min Rain = 0
KST3 122334Z 07011KT 31/12 A2995 RMK A01 T03110115  RH  030%=      5-min Rain = 0
KST3 122335Z 07010KT 31/12 A2995 RMK A01 T03100115  RH  030%=      5-min Rain = 0
KST3 122336Z 07012KT 31/11 A2995 RMK A01 T03090114  RH  030%=      5-min Rain = 0
KST3 122337Z 07011KT 31/11 A2995 RMK A01 T03090114  RH  030%=      5-min Rain = 0
KST3 122338Z 09010KT 31/12 A2995 RMK A01 T03090115  RH  030%=      5-min Rain = 0
KST3 122339Z 09010KT 31/11 A2995 RMK A01 T03090114  RH  030%=      5-min Rain = 0
KST3 122340Z 08009KT 31/12 A2995 RMK A01 T03090115  RH  030%=      5-min Rain = 0
KST3 122341Z 08008KT 31/12 A2995 RMK A01 T03090115  RH  030%=      5-min Rain = 0
KST3 122342Z 09010KT 31/12 A2995 RMK A01 T03090115  RH  030%=      5-min Rain = 0
KST3 122343Z 08010KT 31/12 A2995 RMK A01 T03100115  RH  030%=      5-min Rain = 0
KST3 122344Z 09009KT 31/11 A2995 RMK A01 T03090114  RH  030%=      5-min Rain = 0
KST3 122345Z 09008KT 31/11 A2995 RMK A01 T03080114  RH  030%=      5-min Rain = 0
KST3 122346Z 07007KT 31/12 A2995 RMK A01 T03080115  RH  031%=      5-min Rain = 0
KST3 122347Z 07010KT 31/12 A2995 RMK A01 T03080115  RH  031%=      5-min Rain = 0
KST3 122348Z 07012KT 31/11 A2995 RMK A01 T03070114  RH  031%=      5-min Rain = 0
KST3 122349Z 08012KT 31/11 A2995 RMK A01 T03060114  RH  031%=      5-min Rain = 0
KST3 122350Z 07008KT 31/12 A2994 RMK A01 T03060115  RH  031%=      5-min Rain = 0
KST3 122351Z 07009KT 31/12 A2995 RMK A01 T03050115  RH  031%=      5-min Rain = 0
KST3 122352Z 08009KT 31/12 A2995 RMK A01 T03050115  RH  031%=      5-min Rain = 0
KST3 122353Z 08012KT 31/11 A2995 RMK A01 T03050114  RH  031%=      5-min Rain = 0
KST3 122354Z 07011KT 31/12 A2995 RMK A01 T03050115  RH  031%=      5-min Rain = 0
KST3 122355Z 07011KT 30/11 A2995 RMK A01 T03040114  RH  031%=      5-min Rain = 0
KST3 122356Z 06011KT 30/11 A2995 RMK A01 T03030114  RH  031%=      5-min Rain = 0
KST3 122357Z 06009KT 30/11 A2994 RMK A01 T03030114  RH  031%=      5-min Rain = 0
KST3 122358Z 07010KT 30/12 A2994 RMK A01 T03020115  RH  032%=      5-min Rain = 0
KST3 122359Z 08008KT 30/12 A2994 RMK A01 T03020116  RH  032%=      5-min Rain = 0
KST3 130000Z 08011KT 30/12 A2995 RMK A01 T03020116  RH  032%=      5-min Rain = 0
KST3 130001Z 08011KT 30/12 A2995 RMK A01 T03020115  RH  032%=      5-min Rain = 0
KST3 130002Z 07008KT 30/12 A2995 RMK A01 T03010115  RH  032%=      5-min Rain = 0
KST3 130003Z 07009KT 30/12 A2994 RMK A01 T03010115  RH  032%=      5-min Rain = 0
KST3 130004Z 06012KT 30/12 A2995 RMK A01 T03000115  RH  032%=      5-min Rain = 0
KST3 130005Z 07011KT 30/12 A2995 RMK A01 T02990115  RH  032%=      5-min Rain = 0
KST3 130006Z 08010KT 30/12 A2995 RMK A01 T02990115  RH  032%=      5-min Rain = 0
KST3 130007Z 07007KT 30/12 A2995 RMK A01 T02990116  RH  032%=      5-min Rain = 0
KST3 130008Z 07009KT 30/12 A2995 RMK A01 T02980116  RH  033%=      5-min Rain = 0
KST3 130009Z 07010KT 30/12 A2995 RMK A01 T02980116  RH  033%=      5-min Rain = 0
KST3 130010Z 06010KT 30/12 A2995 RMK A01 T02970116  RH  033%=      5-min Rain = 0
KST3 130011Z 07009KT 30/12 A2995 RMK A01 T02970117  RH  033%=      5-min Rain = 0
KST3 130012Z 07008KT 30/12 A2994 RMK A01 T02960116  RH  033%=      5-min Rain = 0
KST3 130013Z 07009KT 30/12 A2995 RMK A01 T02960117  RH  033%=      5-min Rain = 0
KST3 130014Z 07009KT 30/12 A2994 RMK A01 T02960117  RH  033%=      5-min Rain = 0
KST3 130015Z 07009KT 30/12 A2995 RMK A01 T02950117  RH  033%=      5-min Rain = 0
KST3 130016Z 07009KT 30/12 A2995 RMK A01 T02950117  RH  033%=      5-min Rain = 0
KST3 130017Z 07008KT 29/12 A2995 RMK A01 T02940117  RH  033%=      5-min Rain = 0
KST3 130018Z 07008KT 29/12 A2995 RMK A01 T02940117  RH  034%=      5-min Rain = 0
KST3 130019Z 08009KT 29/12 A2995 RMK A01 T02930117  RH  034%=      5-min Rain = 0
KST3 130020Z 08008KT 29/12 A2995 RMK A01 T02920117  RH  034%=      5-min Rain = 0
KST3 130021Z 07008KT 29/12 A2995 RMK A01 T02920118  RH  034%=      5-min Rain = 0
KST3 130022Z 07009KT 29/12 A2995 RMK A01 T02910118  RH  034%=      5-min Rain = 0
KST3 130023Z 07008KT 29/12 A2995 RMK A01 T02900118  RH  035%=      5-min Rain = 0
KST3 130024Z 08006KT 29/12 A2995 RMK A01 T02890118  RH  035%=      5-min Rain = 0
KST3 130025Z 08007KT 29/12 A2995 RMK A01 T02870118  RH  035%=      5-min Rain = 0
KST3 130026Z 08007KT 29/12 A2995 RMK A01 T02870118  RH  035%=      5-min Rain = 0
KST3 130027Z 09007KT 29/12 A2995 RMK A01 T02850118  RH  035%=      5-min Rain = 0
KST3 130028Z 08007KT 29/12 A2995 RMK A01 T02850117  RH  035%=      5-min Rain = 0
KST3 130029Z 08007KT 28/12 A2995 RMK A01 T02840116  RH  035%=      5-min Rain = 0
KST3 130030Z 08007KT 28/12 A2995 RMK A01 T02840116  RH  035%=      5-min Rain = 0
KST3 130031Z 08007KT 28/12 A2995 RMK A01 T02830115  RH  035%=      5-min Rain = 0
KST3 130032Z 08007KT 28/12 A2995 RMK A01 T02830115  RH  035%=      5-min Rain = 0
KST3 130033Z 09007KT 28/12 A2995 RMK A01 T02830116  RH  035%=      5-min Rain = 0
KST3 130034Z 09006KT 28/12 A2995 RMK A01 T02820116  RH  036%=      5-min Rain = 0
KST3 130035Z 08006KT 28/12 A2995 RMK A01 T02810116  RH  036%=      5-min Rain = 0
KST3 130036Z 08006KT 28/12 A2995 RMK A01 T02790115  RH  036%=      5-min Rain = 0
KST3 130037Z 08006KT 28/12 A2995 RMK A01 T02790116  RH  036%=      5-min Rain = 0
KST3 130038Z 08006KT 28/12 A2995 RMK A01 T02780116  RH  037%=      5-min Rain = 0
KST3 130039Z 08007KT 28/12 A2995 RMK A01 T02770116  RH  037%=      5-min Rain = 0
KST3 130040Z 08007KT 28/12 A2995 RMK A01 T02760116  RH  037%=      5-min Rain = 0
KST3 130041Z 09007KT 28/12 A2995 RMK A01 T02760116  RH  037%=      5-min Rain = 0
KST3 130042Z 09007KT 28/12 A2995 RMK A01 T02750116  RH  037%=      5-min Rain = 0
KST3 130043Z 09007KT 27/12 A2995 RMK A01 T02740116  RH  037%=      5-min Rain = 0
KST3 130044Z 09007KT 27/12 A2995 RMK A01 T02730116  RH  038%=      5-min Rain = 0
KST3 130045Z 09007KT 27/12 A2995 RMK A01 T02720116  RH  038%=      5-min Rain = 0
KST3 130046Z 09007KT 27/12 A2995 RMK A01 T02720117  RH  038%=      5-min Rain = 0
KST3 130047Z 09007KT 27/12 A2995 RMK A01 T02710117  RH  038%=      5-min Rain = 0
KST3 130048Z 09008KT 27/12 A2995 RMK A01 T02710117  RH  038%=      5-min Rain = 0
KST3 130049Z 09007KT 27/12 A2995 RMK A01 T02700117  RH  038%=      5-min Rain = 0
KST3 130050Z 09008KT 27/12 A2995 RMK A01 T02690117  RH  039%=      5-min Rain = 0
KST3 130051Z 09007KT 27/12 A2995 RMK A01 T02690117  RH  039%=      5-min Rain = 0
KST3 130052Z 09008KT 27/12 A2995 RMK A01 T02680118  RH  039%=      5-min Rain = 0
KST3 130053Z 09007KT 27/12 A2995 RMK A01 T02670118  RH  039%=      5-min Rain = 0
KST3 130054Z 09007KT 27/12 A2995 RMK A01 T02670118  RH  040%=      5-min Rain = 0
KST3 130055Z 09008KT 27/12 A2995 RMK A01 T02660118  RH  040%=      5-min Rain = 0
KST3 130056Z 09008KT 27/12 A2995 RMK A01 T02660118  RH  040%=      5-min Rain = 0
KST3 130057Z 09008KT 27/12 A2995 RMK A01 T02650119  RH  040%=      5-min Rain = 0
KST3 130058Z 09008KT 27/12 A2995 RMK A01 T02650119  RH  040%=      5-min Rain = 0
KST3 130059Z 09007KT 26/12 A2995 RMK A01 T02640119  RH  040%=      5-min Rain = 0
KST3 130100Z 09008KT 26/12 A2995 RMK A01 T02630119  RH  040%=      5-min Rain = 0
KST3 130101Z 09008KT 26/12 A2995 RMK A01 T02630119  RH  041%=      5-min Rain = 0
KST3 130102Z 09008KT 26/12 A2995 RMK A01 T02620119  RH  041%=      5-min Rain = 0
KST3 130103Z 09007KT 26/12 A2995 RMK A01 T02610119  RH  041%=      5-min Rain = 0
KST3 130104Z 09007KT 26/12 A2995 RMK A01 T02610119  RH  041%=      5-min Rain = 0
KST3 130105Z 09007KT 26/12 A2995 RMK A01 T02600119  RH  041%=      5-min Rain = 0
KST3 130106Z 09007KT 26/12 A2995 RMK A01 T02600119  RH  042%=      5-min Rain = 0
KST3 130107Z 09007KT 26/12 A2995 RMK A01 T02590119  RH  042%=      5-min Rain = 0
KST3 130108Z 09007KT 26/12 A2995 RMK A01 T02590119  RH  042%=      5-min Rain = 0
KST3 130109Z 09007KT 26/12 A2995 RMK A01 T02590120  RH  042%=      5-min Rain = 0
KST3 130110Z 09007KT 26/12 A2995 RMK A01 T02580119  RH  042%=      5-min Rain = 0
KST3 130111Z 09008KT 26/12 A2995 RMK A01 T02560119  RH  042%=      5-min Rain = 0
KST3 130112Z 09008KT 26/12 A2995 RMK A01 T02550119  RH  043%=      5-min Rain = 0
KST3 130113Z 10007KT 25/12 A2995 RMK A01 T02540119  RH  043%=      5-min Rain = 0
KST3 130114Z 09007KT 25/12 A2995 RMK A01 T02540119  RH  043%=      5-min Rain = 0
KST3 130115Z 09008KT 25/12 A2995 RMK A01 T02530119  RH  043%=      5-min Rain = 0
KST3 130116Z 09008KT 25/12 A2995 RMK A01 T02520119  RH  043%=      5-min Rain = 0
KST3 130117Z 10009KT 25/12 A2995 RMK A01 T02510119  RH  044%=      5-min Rain = 0
KST3 130118Z 10009KT 25/12 A2995 RMK A01 T02510119  RH  044%=      5-min Rain = 0
KST3 130119Z 10009KT 25/12 A2995 RMK A01 T02520119  RH  043%=      5-min Rain = 0
KST3 130120Z 10009KT 25/12 A2995 RMK A01 T02530119  RH  043%=      5-min Rain = 0
KST3 130121Z 10009KT 25/12 A2995 RMK A01 T02530119  RH  043%=      5-min Rain = 0
KST3 130122Z 10009KT 25/12 A2995 RMK A01 T02530118  RH  043%=      5-min Rain = 0
KST3 130123Z 10009KT 25/12 A2995 RMK A01 T02530118  RH  043%=      5-min Rain = 0
KST3 130124Z 10009KT 25/12 A2995 RMK A01 T02540118  RH  043%=      5-min Rain = 0
KST3 130125Z 11009KT 25/12 A2995 RMK A01 T02540118  RH  042%=      5-min Rain = 0
KST3 130126Z 11008KT 25/12 A2995 RMK A01 T02540117  RH  042%=      5-min Rain = 0
KST3 130127Z 11008KT 25/12 A2995 RMK A01 T02540117  RH  042%=      5-min Rain = 0
KST3 130128Z 11008KT 25/12 A2995 RMK A01 T02540117  RH  042%=      5-min Rain = 0
KST3 130129Z 11009KT 25/12 A2995 RMK A01 T02530117  RH  043%=      5-min Rain = 0
KST3 130130Z 11008KT 25/12 A2995 RMK A01 T02530117  RH  043%=      5-min Rain = 0
KST3 130131Z 11008KT 25/12 A2995 RMK A01 T02520117  RH  043%=      5-min Rain = 0
KST3 130132Z 11008KT 25/12 A2995 RMK A01 T02520117  RH  043%=      5-min Rain = 0
KST3 130133Z 11008KT 25/12 A2995 RMK A01 T02520117  RH  043%=      5-min Rain = 0
KST3 130134Z 11008KT 25/12 A2995 RMK A01 T02510117  RH  043%=      5-min Rain = 0
KST3 130135Z 11008KT 25/12 A2995 RMK A01 T02510117  RH  043%=      5-min Rain = 0
KST3 130136Z 11008KT 25/12 A2995 RMK A01 T02500117  RH  043%=      5-min Rain = 0
KST3 130137Z 11008KT 25/12 A2995 RMK A01 T02500117  RH  043%=      5-min Rain = 0
KST3 130138Z 11008KT 25/12 A2995 RMK A01 T02490117  RH  044%=      5-min Rain = 0
KST3 130139Z 11008KT 25/12 A2995 RMK A01 T02490117  RH  044%=      5-min Rain = 0
KST3 130140Z 11008KT 25/12 A2995 RMK A01 T02490117  RH  044%=      5-min Rain = 0
KST3 130141Z 11009KT 25/12 A2995 RMK A01 T02480117  RH  044%=      5-min Rain = 0
KST3 130142Z 11008KT 25/12 A2995 RMK A01 T02480117  RH  044%=      5-min Rain = 0
KST3 130143Z 11008KT 25/12 A2995 RMK A01 T02480117  RH  044%=      5-min Rain = 0
KST3 130144Z 10008KT 25/12 A2995 RMK A01 T02470116  RH  044%=      5-min Rain = 0
KST3 130145Z 10008KT 25/12 A2995 RMK A01 T02450116  RH  044%=      5-min Rain = 0
KST3 130146Z 10007KT 24/12 A2996 RMK A01 T02430116  RH  045%=      5-min Rain = 0
KST3 130147Z 09006KT 24/12 A2996 RMK A01 T02420117  RH  045%=      5-min Rain = 0
KST3 130148Z 08004KT 24/12 A2996 RMK A01 T02410117  RH  046%=      5-min Rain = 0
KST3 130149Z 08005KT 24/12 A2996 RMK A01 T02390116  RH  046%=      5-min Rain = 0
KST3 130150Z 08004KT 24/12 A2996 RMK A01 T02360115  RH  047%=      5-min Rain = 0
KST3 130151Z 08004KT 23/12 A2996 RMK A01 T02340116  RH  047%=      5-min Rain = 0
KST3 130152Z 08005KT 23/12 A2996 RMK A01 T02340116  RH  048%=      5-min Rain = 0
KST3 130153Z 08005KT 23/12 A2996 RMK A01 T02340116  RH  048%=      5-min Rain = 0
KST3 130154Z 07005KT 23/12 A2996 RMK A01 T02340116  RH  047%=      5-min Rain = 0
KST3 130155Z 07005KT 23/12 A2996 RMK A01 T02340116  RH  047%=      5-min Rain = 0
KST3 130156Z 07006KT 23/12 A2996 RMK A01 T02340116  RH  047%=      5-min Rain = 0
KST3 130157Z 08005KT 23/12 A2996 RMK A01 T02340116  RH  047%=      5-min Rain = 0
KST3 130158Z 08006KT 24/12 A2996 RMK A01 T02350117  RH  047%=      5-min Rain = 0
KST3 130159Z 08007KT 24/12 A2996 RMK A01 T02370117  RH  047%=      5-min Rain = 0
KST3 130200Z 09007KT 24/12 A2996 RMK A01 T02380117  RH  047%=      5-min Rain = 0
KST3 130201Z 09007KT 24/12 A2996 RMK A01 T02380117  RH  046%=      5-min Rain = 0
KST3 130202Z 09007KT 24/12 A2996 RMK A01 T02390117  RH  046%=      5-min Rain = 0
KST3 130203Z 09006KT 24/12 A2996 RMK A01 T02390117  RH  046%=      5-min Rain = 0
KST3 130204Z 09007KT 24/12 A2996 RMK A01 T02390117  RH  046%=      5-min Rain = 0
KST3 130205Z 09006KT 24/12 A2996 RMK A01 T02390118  RH  047%=      5-min Rain = 0
KST3 130206Z 09007KT 24/12 A2996 RMK A01 T02380118  RH  047%=      5-min Rain = 0
KST3 130207Z 09007KT 24/12 A2996 RMK A01 T02380118  RH  047%=      5-min Rain = 0
KST3 130208Z 08007KT 24/12 A2996 RMK A01 T02380119  RH  047%=      5-min Rain = 0
KST3 130209Z 09006KT 24/12 A2996 RMK A01 T02390119  RH  047%=      5-min Rain = 0
KST3 130210Z 08006KT 24/12 A2996 RMK A01 T02390119  RH  047%=      5-min Rain = 0
KST3 130211Z 08006KT 24/12 A2997 RMK A01 T02390119  RH  047%=      5-min Rain = 0
KST3 130212Z 08006KT 24/12 A2997 RMK A01 T02390119  RH  047%=      5-min Rain = 0
KST3 130213Z 07006KT 24/12 A2997 RMK A01 T02390119  RH  047%=      5-min Rain = 0
KST3 130214Z 07005KT 24/12 A2997 RMK A01 T02380119  RH  047%=      5-min Rain = 0
KST3 130215Z 07005KT 24/12 A2997 RMK A01 T02380119  RH  047%=      5-min Rain = 0
KST3 130216Z 07005KT 24/12 A2997 RMK A01 T02370119  RH  047%=      5-min Rain = 0
KST3 130217Z 08005KT 24/12 A2997 RMK A01 T02370119  RH  048%=      5-min Rain = 0
KST3 130218Z 08005KT 24/12 A2997 RMK A01 T02360119  RH  048%=      5-min Rain = 0
KST3 130219Z 08004KT 24/12 A2997 RMK A01 T02360119  RH  048%=      5-min Rain = 0
KST3 130220Z 08005KT 24/12 A2997 RMK A01 T02360119  RH  048%=      5-min Rain = 0
KST3 130221Z 08005KT 24/12 A2997 RMK A01 T02360119  RH  048%=      5-min Rain = 0
KST3 130222Z 09005KT 24/12 A2997 RMK A01 T02360119  RH  048%=      5-min Rain = 0
KST3 130223Z 08005KT 24/12 A2997 RMK A01 T02360119  RH  048%=      5-min Rain = 0
KST3 130224Z 09004KT 24/12 A2997 RMK A01 T02360119  RH  048%=      5-min Rain = 0
KST3 130225Z 08004KT 24/12 A2997 RMK A01 T02360119  RH  048%=      5-min Rain = 0
KST3 130226Z 08004KT 24/12 A2997 RMK A01 T02360119  RH  048%=      5-min Rain = 0
KST3 130227Z 08004KT 24/12 A2997 RMK A01 T02360119  RH  048%=      5-min Rain = 0
KST3 130228Z 08005KT 24/12 A2997 RMK A01 T02360119  RH  048%=      5-min Rain = 0
KST3 130229Z 08005KT 24/12 A2997 RMK A01 T02360119  RH  048%=      5-min Rain = 0
KST3 130230Z 08005KT 24/12 A2997 RMK A01 T02350119  RH  048%=      5-min Rain = 0
KST3 130231Z 07004KT 24/12 A2997 RMK A01 T02350119  RH  048%=      5-min Rain = 0
KST3 130232Z 08004KT 23/12 A2997 RMK A01 T02340119  RH  048%=      5-min Rain = 0
KST3 130233Z 08004KT 23/12 A2997 RMK A01 T02340119  RH  048%=      5-min Rain = 0
KST3 130234Z 08004KT 23/12 A2997 RMK A01 T02340119  RH  048%=      5-min Rain = 0
KST3 130235Z 09004KT 23/12 A2997 RMK A01 T02340119  RH  048%=      5-min Rain = 0
KST3 130236Z 09004KT 23/12 A2998 RMK A01 T02340119  RH  048%=      5-min Rain = 0
KST3 130237Z 09005KT 23/12 A2998 RMK A01 T02330119  RH  048%=      5-min Rain = 0
KST3 130238Z 09005KT 23/12 A2997 RMK A01 T02330119  RH  049%=      5-min Rain = 0
KST3 130239Z 09006KT 23/12 A2997 RMK A01 T02330119  RH  049%=      5-min Rain = 0
KST3 130240Z 09006KT 23/12 A2997 RMK A01 T02320119  RH  049%=      5-min Rain = 0
KST3 130241Z 09006KT 23/12 A2997 RMK A01 T02320119  RH  049%=      5-min Rain = 0
KST3 130242Z 09005KT 23/12 A2997 RMK A01 T02320119  RH  049%=      5-min Rain = 0
KST3 130243Z 09006KT 23/12 A2997 RMK A01 T02320119  RH  049%=      5-min Rain = 0
KST3 130244Z 09005KT 23/12 A2997 RMK A01 T02320118  RH  049%=      5-min Rain = 0
KST3 130245Z 09005KT 23/12 A2997 RMK A01 T02320118  RH  049%=      5-min Rain = 0
KST3 130246Z 09005KT 23/12 A2997 RMK A01 T02320118  RH  049%=      5-min Rain = 0
KST3 130247Z 09005KT 23/12 A2997 RMK A01 T02310118  RH  049%=      5-min Rain = 0
KST3 130248Z 09006KT 23/12 A2997 RMK A01 T02310118  RH  049%=      5-min Rain = 0
KST3 130249Z 09005KT 23/12 A2997 RMK A01 T02310118  RH  049%=      5-min Rain = 0
KST3 130250Z 09006KT 23/12 A2997 RMK A01 T02310118  RH  049%=      5-min Rain = 0
KST3 130251Z 09006KT 23/12 A2997 RMK A01 T02310118  RH  049%=      5-min Rain = 0
KST3 130252Z 09006KT 23/12 A2997 RMK A01 T02310118  RH  049%=      5-min Rain = 0
KST3 130253Z 09005KT 23/12 A2997 RMK A01 T02310118  RH  049%=      5-min Rain = 0
KST3 130254Z 09004KT 23/12 A2997 RMK A01 T02310118  RH  049%=      5-min Rain = 0
KST3 130255Z 09004KT 23/12 A2997 RMK A01 T02310118  RH  049%=      5-min Rain = 0
KST3 130256Z 09004KT 23/12 A2997 RMK A01 T02310118  RH  049%=      5-min Rain = 0
KST3 130257Z 09004KT 23/12 A2997 RMK A01 T02310118  RH  049%=      5-min Rain = 0
KST3 130258Z 09004KT 23/12 A2997 RMK A01 T02300118  RH  049%=      5-min Rain = 0
KST3 130259Z 09004KT 23/12 A2997 RMK A01 T02300118  RH  049%=      5-min Rain = 0
KST3 130300Z 09004KT 23/12 A2997 RMK A01 T02290117  RH  049%=      5-min Rain = 0
KST3 130301Z 09004KT 23/12 A2997 RMK A01 T02290117  RH  049%=      5-min Rain = 0
KST3 130302Z 09004KT 23/12 A2997 RMK A01 T02280117  RH  050%=      5-min Rain = 0
KST3 130303Z 09004KT 23/12 A2997 RMK A01 T02270117  RH  050%=      5-min Rain = 0
KST3 130304Z 09004KT 23/12 A2997 RMK A01 T02260117  RH  050%=      5-min Rain = 0
KST3 130305Z 09004KT 23/12 A2997 RMK A01 T02260117  RH  050%=      5-min Rain = 0
KST3 130306Z 10004KT 23/12 A2997 RMK A01 T02250117  RH  050%=      5-min Rain = 0
KST3 130307Z 10004KT 22/12 A2997 RMK A01 T02240116  RH  050%=      5-min Rain = 0
KST3 130308Z 10005KT 22/12 A2997 RMK A01 T02240117  RH  051%=      5-min Rain = 0
KST3 130309Z 09005KT 22/12 A2997 RMK A01 T02240117  RH  051%=      5-min Rain = 0
KST3 130310Z 09005KT 22/12 A2997 RMK A01 T02240117  RH  051%=      5-min Rain = 0
KST3 130311Z 09005KT 22/12 A2997 RMK A01 T02240117  RH  051%=      5-min Rain = 0
KST3 130312Z 09005KT 22/12 A2997 RMK A01 T02240117  RH  050%=      5-min Rain = 0
KST3 130313Z 09005KT 23/12 A2997 RMK A01 T02250117  RH  050%=      5-min Rain = 0
KST3 130314Z 09004KT 23/12 A2997 RMK A01 T02250117  RH  050%=      5-min Rain = 0
KST3 130315Z 09005KT 23/12 A2997 RMK A01 T02250117  RH  050%=      5-min Rain = 0
KST3 130316Z 10005KT 23/12 A2997 RMK A01 T02250117  RH  050%=      5-min Rain = 0
KST3 130317Z 10004KT 23/12 A2998 RMK A01 T02250117  RH  050%=      5-min Rain = 0
KST3 130318Z 10004KT 22/12 A2998 RMK A01 T02240116  RH  050%=      5-min Rain = 0
KST3 130319Z 10004KT 22/12 A2998 RMK A01 T02240116  RH  050%=      5-min Rain = 0
KST3 130320Z 09004KT 22/12 A2998 RMK A01 T02230116  RH  051%=      5-min Rain = 0
KST3 130321Z 09003KT 22/12 A2998 RMK A01 T02230116  RH  051%=      5-min Rain = 0
KST3 130322Z 09004KT 22/12 A2998 RMK A01 T02220116  RH  051%=      5-min Rain = 0
KST3 130323Z 09004KT 22/12 A2998 RMK A01 T02220116  RH  051%=      5-min Rain = 0
KST3 130324Z 09004KT 22/12 A2998 RMK A01 T02220116  RH  051%=      5-min Rain = 0
KST3 130325Z 09004KT 22/12 A2998 RMK A01 T02210116  RH  051%=      5-min Rain = 0
KST3 130326Z 09004KT 22/12 A2998 RMK A01 T02200116  RH  051%=      5-min Rain = 0
KST3 130327Z 09004KT 22/12 A2998 RMK A01 T02190116  RH  052%=      5-min Rain = 0
KST3 130328Z 09004KT 22/12 A2998 RMK A01 T02190116  RH  052%=      5-min Rain = 0
KST3 130329Z 09005KT 22/12 A2998 RMK A01 T02190116  RH  052%=      5-min Rain = 0
KST3 130330Z 09004KT 22/12 A2998 RMK A01 T02190115  RH  052%=      5-min Rain = 0
KST3 130331Z 09004KT 22/12 A2998 RMK A01 T02200116  RH  052%=      5-min Rain = 0
KST3 130332Z 09004KT 22/12 A2998 RMK A01 T02200116  RH  052%=      5-min Rain = 0
KST3 130333Z 09004KT 22/12 A2998 RMK A01 T02200116  RH  052%=      5-min Rain = 0
KST3 130334Z 09004KT 22/12 A2998 RMK A01 T02200116  RH  052%=      5-min Rain = 0
KST3 130335Z 09004KT 22/12 A2998 RMK A01 T02190116  RH  052%=      5-min Rain = 0
KST3 130336Z 09004KT 22/12 A2997 RMK A01 T02190115  RH  052%=      5-min Rain = 0
KST3 130337Z 09004KT 22/12 A2997 RMK A01 T02180115  RH  052%=      5-min Rain = 0
KST3 130338Z 10004KT 22/12 A2997 RMK A01 T02170115  RH  052%=      5-min Rain = 0
KST3 130339Z 09004KT 22/12 A2997 RMK A01 T02170115  RH  052%=      5-min Rain = 0
KST3 130340Z 09004KT 22/12 A2997 RMK A01 T02170115  RH  052%=      5-min Rain = 0
KST3 130341Z 09004KT 22/12 A2997 RMK A01 T02170115  RH  052%=      5-min Rain = 0
KST3 130342Z 10004KT 22/12 A2997 RMK A01 T02170115  RH  052%=      5-min Rain = 0
KST3 130343Z 10004KT 22/12 A2997 RMK A01 T02160115  RH  052%=      5-min Rain = 0
KST3 130344Z 10004KT 22/11 A2997 RMK A01 T02160114  RH  052%=      5-min Rain = 0
KST3 130345Z 11004KT 22/11 A2997 RMK A01 T02160114  RH  052%=      5-min Rain = 0
KST3 130346Z 11004KT 22/11 A2997 RMK A01 T02160114  RH  052%=      5-min Rain = 0
KST3 130347Z 11004KT 22/11 A2997 RMK A01 T02170114  RH  052%=      5-min Rain = 0
KST3 130348Z 11005KT 22/11 A2997 RMK A01 T02180114  RH  052%=      5-min Rain = 0
KST3 130349Z 11005KT 22/11 A2997 RMK A01 T02190114  RH  051%=      5-min Rain = 0
KST3 130350Z 11005KT 22/11 A2997 RMK A01 T02190114  RH  051%=      5-min Rain = 0
KST3 130351Z 11005KT 22/11 A2997 RMK A01 T02190114  RH  051%=      5-min Rain = 0
KST3 130352Z 11005KT 22/11 A2997 RMK A01 T02180114  RH  051%=      5-min Rain = 0
KST3 130353Z 11005KT 22/11 A2997 RMK A01 T02180114  RH  052%=      5-min Rain = 0
KST3 130354Z 10004KT 22/11 A2997 RMK A01 T02180114  RH  052%=      5-min Rain = 0
KST3 130355Z 11004KT 22/11 A2997 RMK A01 T02170114  RH  052%=      5-min Rain = 0
KST3 130356Z 11004KT 22/11 A2997 RMK A01 T02170113  RH  052%=      5-min Rain = 0
KST3 130357Z 12004KT 22/11 A2997 RMK A01 T02180114  RH  052%=      5-min Rain = 0
KST3 130358Z 12004KT 22/11 A2997 RMK A01 T02170113  RH  051%=      5-min Rain = 0
KST3 130359Z 13004KT 22/11 A2997 RMK A01 T02180113  RH  051%=      5-min Rain = 0
KST3 130400Z 13005KT 22/11 A2997 RMK A01 T02180113  RH  051%=      5-min Rain = 0
KST3 130401Z 13004KT 22/11 A2997 RMK A01 T02190113  RH  051%=      5-min Rain = 0
KST3 130402Z 13004KT 22/11 A2997 RMK A01 T02200114  RH  051%=      5-min Rain = 0
KST3 130403Z 13004KT 22/11 A2997 RMK A01 T02200114  RH  051%=      5-min Rain = 0
KST3 130404Z 13004KT 22/11 A2997 RMK A01 T02200114  RH  051%=      5-min Rain = 0
KST3 130405Z 12004KT 22/11 A2997 RMK A01 T02200113  RH  051%=      5-min Rain = 0
KST3 130406Z 12004KT 22/11 A2997 RMK A01 T02190113  RH  051%=      5-min Rain = 0
KST3 130407Z 12004KT 22/11 A2997 RMK A01 T02190113  RH  051%=      5-min Rain = 0
KST3 130408Z 12004KT 22/11 A2997 RMK A01 T02180113  RH  051%=      5-min Rain = 0
KST3 130409Z 12004KT 22/11 A2997 RMK A01 T02180113  RH  051%=      5-min Rain = 0
KST3 130410Z 12005KT 22/11 A2997 RMK A01 T02180113  RH  051%=      5-min Rain = 0
KST3 130411Z 12005KT 22/11 A2997 RMK A01 T02180113  RH  051%=      5-min Rain = 0
KST3 130412Z 12004KT 22/11 A2997 RMK A01 T02170113  RH  051%=      5-min Rain = 0
KST3 130413Z 12004KT 22/11 A2997 RMK A01 T02160112  RH  052%=      5-min Rain = 0
KST3 130414Z 12004KT 22/11 A2997 RMK A01 T02160112  RH  052%=      5-min Rain = 0
KST3 130415Z 12004KT 22/11 A2997 RMK A01 T02160112  RH  052%=      5-min Rain = 0
KST3 130416Z 13003KT 22/11 A2997 RMK A01 T02160113  RH  052%=      5-min Rain = 0
KST3 130417Z 13004KT 22/11 A2997 RMK A01 T02160112  RH  052%=      5-min Rain = 0
KST3 130418Z 13004KT 22/11 A2997 RMK A01 T02160113  RH  052%=      5-min Rain = 0
KST3 130419Z 13004KT 22/11 A2997 RMK A01 T02160113  RH  052%=      5-min Rain = 0
KST3 130420Z 13004KT 22/11 A2997 RMK A01 T02160113  RH  052%=      5-min Rain = 0
KST3 130421Z 13004KT 22/11 A2997 RMK A01 T02160113  RH  052%=      5-min Rain = 0
KST3 130422Z 13004KT 22/11 A2997 RMK A01 T02160113  RH  052%=      5-min Rain = 0
KST3 130423Z 13004KT 22/11 A2997 RMK A01 T02160113  RH  052%=      5-min Rain = 0
KST3 130424Z 13004KT 22/11 A2997 RMK A01 T02160113  RH  052%=      5-min Rain = 0
KST3 130425Z 13004KT 22/11 A2997 RMK A01 T02150113  RH  052%=      5-min Rain = 0
KST3 130426Z 13004KT 22/11 A2997 RMK A01 T02150113  RH  052%=      5-min Rain = 0
KST3 130427Z 13004KT 22/11 A2997 RMK A01 T02150113  RH  052%=      5-min Rain = 0
KST3 130428Z 14004KT 22/11 A2997 RMK A01 T02150113  RH  052%=      5-min Rain = 0
KST3 130429Z 14004KT 22/11 A2997 RMK A01 T02150113  RH  052%=      5-min Rain = 0
KST3 130430Z 14004KT 22/11 A2997 RMK A01 T02150113  RH  052%=      5-min Rain = 0
KST3 130431Z 14004KT 22/11 A2997 RMK A01 T02150112  RH  052%=      5-min Rain = 0
KST3 130432Z 14004KT 22/11 A2997 RMK A01 T02160113  RH  052%=      5-min Rain = 0
KST3 130433Z 13005KT 22/11 A2997 RMK A01 T02150113  RH  052%=      5-min Rain = 0
KST3 130434Z 13005KT 22/11 A2997 RMK A01 T02150113  RH  052%=      5-min Rain = 0
KST3 130435Z 13005KT 21/11 A2997 RMK A01 T02140113  RH  052%=      5-min Rain = 0
KST3 130436Z 13005KT 21/11 A2997 RMK A01 T02130113  RH  053%=      5-min Rain = 0
KST3 130437Z 14005KT 21/11 A2997 RMK A01 T02120113  RH  053%=      5-min Rain = 0
KST3 130438Z 14005KT 21/11 A2997 RMK A01 T02120112  RH  053%=      5-min Rain = 0
KST3 130439Z 15004KT 21/11 A2997 RMK A01 T02110112  RH  053%=      5-min Rain = 0
KST3 130440Z 14005KT 21/11 A2997 RMK A01 T02110113  RH  053%=      5-min Rain = 0
KST3 130441Z 14005KT 21/11 A2997 RMK A01 T02100112  RH  053%=      5-min Rain = 0
KST3 130442Z 13005KT 21/11 A2997 RMK A01 T02100112  RH  054%=      5-min Rain = 0
KST3 130443Z 14005KT 21/11 A2997 RMK A01 T02100113  RH  054%=      5-min Rain = 0
KST3 130444Z 14005KT 21/11 A2997 RMK A01 T02100113  RH  054%=      5-min Rain = 0
KST3 130445Z 15005KT 21/11 A2997 RMK A01 T02100113  RH  054%=      5-min Rain = 0
KST3 130446Z 15005KT 21/11 A2997 RMK A01 T02100113  RH  054%=      5-min Rain = 0
KST3 130447Z 16005KT 21/11 A2997 RMK A01 T02100113  RH  054%=      5-min Rain = 0
KST3 130448Z 16005KT 21/11 A2998 RMK A01 T02100112  RH  054%=      5-min Rain = 0
KST3 130449Z 17006KT 21/11 A2998 RMK A01 T02100113  RH  054%=      5-min Rain = 0
KST3 130450Z 17005KT 21/11 A2998 RMK A01 T02100113  RH  054%=      5-min Rain = 0
KST3 130451Z 17006KT 21/11 A2998 RMK A01 T02110113  RH  054%=      5-min Rain = 0
KST3 130452Z 17005KT 21/11 A2998 RMK A01 T02110113  RH  054%=      5-min Rain = 0
KST3 130453Z 17005KT 21/11 A2998 RMK A01 T02110113  RH  054%=      5-min Rain = 0
KST3 130454Z 18005KT 21/11 A2998 RMK A01 T02110113  RH  054%=      5-min Rain = 0
KST3 130455Z 18004KT 21/11 A2998 RMK A01 T02110113  RH  054%=      5-min Rain = 0
KST3 130456Z 19005KT 21/11 A2998 RMK A01 T02100112  RH  054%=      5-min Rain = 0
KST3 130457Z 19005KT 21/11 A2998 RMK A01 T02080112  RH  054%=      5-min Rain = 0
KST3 130458Z 20005KT 21/11 A2998 RMK A01 T02050111  RH  055%=      5-min Rain = 0
KST3 130459Z 20004KT 20/11 A2998 RMK A01 T02030111  RH  055%=      5-min Rain = 0

Page generated in 0.157 seconds.